<?xml version="1.0" encoding="UTF-8" standalone="no" ?>
<gpx xmlns="http://www.topografix.com/GPX/1/1" xmlns:xsi="http://www.w3.org/2001/XMLSchema-instance" xsi:schemaLocation="http://www.topografix.com/GPX/1/1 http://www.topografix.com/GPX/1/1/gpx.xsd" version="1.1" creator="VisuGPX - https://www.visugpx.com">
  <metadata>
    <name>Tour du Signal et Villard reculas</name>
    <desc><![CDATA[Un balade ludique et facile avec de jolis points de vue]]></desc>
  </metadata>
  <trk>
    <name><![CDATA[Tour du Signal et Villard reculas]]></name>
    <trkseg>
      <trkpt lat="45.09336" lon="6.06932">
        <ele>1835.5</ele>
        <time>2019-10-20T10:56:15Z</time>
      </trkpt>
      <trkpt lat="45.09356" lon="6.06931">
        <ele>1835.2</ele>
        <time>2019-10-20T10:57:19Z</time>
      </trkpt>
      <trkpt lat="45.09358" lon="6.06921">
        <ele>1835.1</ele>
        <time>2019-10-20T10:57:24Z</time>
      </trkpt>
      <trkpt lat="45.09352" lon="6.06915">
        <ele>1834.9</ele>
        <time>2019-10-20T10:57:40Z</time>
      </trkpt>
      <trkpt lat="45.09351" lon="6.06916">
        <ele>1834.9</ele>
        <time>2019-10-20T10:57:45Z</time>
      </trkpt>
      <trkpt lat="45.09349" lon="6.06935">
        <ele>1834.6</ele>
        <time>2019-10-20T10:57:50Z</time>
      </trkpt>
      <trkpt lat="45.09347" lon="6.06948">
        <ele>1834.3</ele>
        <time>2019-10-20T10:57:57Z</time>
      </trkpt>
      <trkpt lat="45.09342" lon="6.06998">
        <ele>1833.2</ele>
        <time>2019-10-20T10:58:02Z</time>
      </trkpt>
      <trkpt lat="45.09335" lon="6.0702">
        <ele>1832.7</ele>
        <time>2019-10-20T10:58:09Z</time>
      </trkpt>
      <trkpt lat="45.0936" lon="6.07034">
        <ele>1835.8</ele>
        <time>2019-10-20T10:58:14Z</time>
      </trkpt>
      <trkpt lat="45.09376" lon="6.07036">
        <ele>1837.2</ele>
        <time>2019-10-20T10:58:19Z</time>
      </trkpt>
      <trkpt lat="45.09392" lon="6.07036">
        <ele>1839</ele>
        <time>2019-10-20T10:58:24Z</time>
      </trkpt>
      <trkpt lat="45.09404" lon="6.07028">
        <ele>1840.3</ele>
        <time>2019-10-20T10:58:29Z</time>
      </trkpt>
      <trkpt lat="45.09424" lon="6.0702">
        <ele>1842.5</ele>
        <time>2019-10-20T10:58:34Z</time>
      </trkpt>
      <trkpt lat="45.0944" lon="6.07012">
        <ele>1844.6</ele>
        <time>2019-10-20T10:58:39Z</time>
      </trkpt>
      <trkpt lat="45.09458" lon="6.07004">
        <ele>1846.5</ele>
        <time>2019-10-20T10:58:44Z</time>
      </trkpt>
      <trkpt lat="45.09477" lon="6.06998">
        <ele>1848.2</ele>
        <time>2019-10-20T10:58:49Z</time>
      </trkpt>
      <trkpt lat="45.09495" lon="6.0699">
        <ele>1849.9</ele>
        <time>2019-10-20T10:58:54Z</time>
      </trkpt>
      <trkpt lat="45.09511" lon="6.06976">
        <ele>1853.2</ele>
        <time>2019-10-20T10:58:59Z</time>
      </trkpt>
      <trkpt lat="45.09527" lon="6.06963">
        <ele>1854.5</ele>
        <time>2019-10-20T10:59:04Z</time>
      </trkpt>
      <trkpt lat="45.09546" lon="6.06957">
        <ele>1854.9</ele>
        <time>2019-10-20T10:59:09Z</time>
      </trkpt>
      <trkpt lat="45.09568" lon="6.06962">
        <ele>1855.4</ele>
        <time>2019-10-20T10:59:14Z</time>
      </trkpt>
      <trkpt lat="45.09581" lon="6.06945">
        <ele>1856.1</ele>
        <time>2019-10-20T10:59:20Z</time>
      </trkpt>
      <trkpt lat="45.096" lon="6.06923">
        <ele>1857.8</ele>
        <time>2019-10-20T10:59:25Z</time>
      </trkpt>
      <trkpt lat="45.0961" lon="6.069">
        <ele>1858.7</ele>
        <time>2019-10-20T10:59:30Z</time>
      </trkpt>
      <trkpt lat="45.0962" lon="6.06878">
        <ele>1859.6</ele>
        <time>2019-10-20T10:59:35Z</time>
      </trkpt>
      <trkpt lat="45.09637" lon="6.0688">
        <ele>1859.7</ele>
        <time>2019-10-20T10:59:40Z</time>
      </trkpt>
      <trkpt lat="45.09656" lon="6.06887">
        <ele>1860.1</ele>
        <time>2019-10-20T10:59:46Z</time>
      </trkpt>
      <trkpt lat="45.09671" lon="6.06901">
        <ele>1860.6</ele>
        <time>2019-10-20T10:59:52Z</time>
      </trkpt>
      <trkpt lat="45.0969" lon="6.06908">
        <ele>1861.4</ele>
        <time>2019-10-20T10:59:57Z</time>
      </trkpt>
      <trkpt lat="45.09712" lon="6.0692">
        <ele>1861.4</ele>
        <time>2019-10-20T11:00:02Z</time>
      </trkpt>
      <trkpt lat="45.09733" lon="6.06931">
        <ele>1861.7</ele>
        <time>2019-10-20T11:00:07Z</time>
      </trkpt>
      <trkpt lat="45.09752" lon="6.06943">
        <ele>1862.5</ele>
        <time>2019-10-20T11:00:12Z</time>
      </trkpt>
      <trkpt lat="45.09772" lon="6.06937">
        <ele>1863.1</ele>
        <time>2019-10-20T11:00:17Z</time>
      </trkpt>
      <trkpt lat="45.09788" lon="6.06921">
        <ele>1863.9</ele>
        <time>2019-10-20T11:00:22Z</time>
      </trkpt>
      <trkpt lat="45.0981" lon="6.06909">
        <ele>1865.6</ele>
        <time>2019-10-20T11:00:27Z</time>
      </trkpt>
      <trkpt lat="45.09825" lon="6.06897">
        <ele>1867.2</ele>
        <time>2019-10-20T11:00:32Z</time>
      </trkpt>
      <trkpt lat="45.09838" lon="6.0689">
        <ele>1868.3</ele>
        <time>2019-10-20T11:00:37Z</time>
      </trkpt>
      <trkpt lat="45.0985" lon="6.06881">
        <ele>1869.2</ele>
        <time>2019-10-20T11:00:42Z</time>
      </trkpt>
      <trkpt lat="45.09863" lon="6.06873">
        <ele>1870.2</ele>
        <time>2019-10-20T11:00:47Z</time>
      </trkpt>
      <trkpt lat="45.09876" lon="6.06864">
        <ele>1871.1</ele>
        <time>2019-10-20T11:00:52Z</time>
      </trkpt>
      <trkpt lat="45.09888" lon="6.0686">
        <ele>1871.9</ele>
        <time>2019-10-20T11:00:57Z</time>
      </trkpt>
      <trkpt lat="45.09906" lon="6.06853">
        <ele>1873.5</ele>
        <time>2019-10-20T11:01:02Z</time>
      </trkpt>
      <trkpt lat="45.09928" lon="6.06847">
        <ele>1875.5</ele>
        <time>2019-10-20T11:01:07Z</time>
      </trkpt>
      <trkpt lat="45.09948" lon="6.06839">
        <ele>1877.6</ele>
        <time>2019-10-20T11:01:12Z</time>
      </trkpt>
      <trkpt lat="45.09969" lon="6.06834">
        <ele>1879.5</ele>
        <time>2019-10-20T11:01:18Z</time>
      </trkpt>
      <trkpt lat="45.09991" lon="6.06826">
        <ele>1881.6</ele>
        <time>2019-10-20T11:01:23Z</time>
      </trkpt>
      <trkpt lat="45.10014" lon="6.06818">
        <ele>1883.7</ele>
        <time>2019-10-20T11:01:31Z</time>
      </trkpt>
      <trkpt lat="45.10052" lon="6.06804">
        <ele>1886.6</ele>
        <time>2019-10-20T11:01:36Z</time>
      </trkpt>
      <trkpt lat="45.10075" lon="6.06795">
        <ele>1888.5</ele>
        <time>2019-10-20T11:01:41Z</time>
      </trkpt>
      <trkpt lat="45.10099" lon="6.0679">
        <ele>1890.6</ele>
        <time>2019-10-20T11:01:46Z</time>
      </trkpt>
      <trkpt lat="45.10128" lon="6.06781">
        <ele>1893.9</ele>
        <time>2019-10-20T11:01:52Z</time>
      </trkpt>
      <trkpt lat="45.10151" lon="6.06774">
        <ele>1896.5</ele>
        <time>2019-10-20T11:01:57Z</time>
      </trkpt>
      <trkpt lat="45.10174" lon="6.06766">
        <ele>1898.8</ele>
        <time>2019-10-20T11:02:02Z</time>
      </trkpt>
      <trkpt lat="45.10199" lon="6.06755">
        <ele>1901.1</ele>
        <time>2019-10-20T11:02:08Z</time>
      </trkpt>
      <trkpt lat="45.10222" lon="6.06744">
        <ele>1902.9</ele>
        <time>2019-10-20T11:02:14Z</time>
      </trkpt>
      <trkpt lat="45.1024" lon="6.06733">
        <ele>1904.3</ele>
        <time>2019-10-20T11:02:19Z</time>
      </trkpt>
      <trkpt lat="45.10258" lon="6.0672">
        <ele>1905.9</ele>
        <time>2019-10-20T11:02:24Z</time>
      </trkpt>
      <trkpt lat="45.10275" lon="6.06708">
        <ele>1907.8</ele>
        <time>2019-10-20T11:02:29Z</time>
      </trkpt>
      <trkpt lat="45.10291" lon="6.06695">
        <ele>1909.5</ele>
        <time>2019-10-20T11:02:35Z</time>
      </trkpt>
      <trkpt lat="45.10309" lon="6.06686">
        <ele>1912</ele>
        <time>2019-10-20T11:02:40Z</time>
      </trkpt>
      <trkpt lat="45.1033" lon="6.06682">
        <ele>1914.5</ele>
        <time>2019-10-20T11:02:45Z</time>
      </trkpt>
      <trkpt lat="45.10347" lon="6.06682">
        <ele>1916.8</ele>
        <time>2019-10-20T11:02:50Z</time>
      </trkpt>
      <trkpt lat="45.10364" lon="6.06684">
        <ele>1919</ele>
        <time>2019-10-20T11:02:55Z</time>
      </trkpt>
      <trkpt lat="45.10379" lon="6.06683">
        <ele>1920.8</ele>
        <time>2019-10-20T11:03:00Z</time>
      </trkpt>
      <trkpt lat="45.10399" lon="6.06685">
        <ele>1923.3</ele>
        <time>2019-10-20T11:03:06Z</time>
      </trkpt>
      <trkpt lat="45.10417" lon="6.06689">
        <ele>1924.3</ele>
        <time>2019-10-20T11:03:11Z</time>
      </trkpt>
      <trkpt lat="45.10434" lon="6.06695">
        <ele>1926.7</ele>
        <time>2019-10-20T11:03:20Z</time>
      </trkpt>
      <trkpt lat="45.10461" lon="6.06709">
        <ele>1930.2</ele>
        <time>2019-10-20T11:03:25Z</time>
      </trkpt>
      <trkpt lat="45.10476" lon="6.06716">
        <ele>1931.3</ele>
        <time>2019-10-20T11:03:30Z</time>
      </trkpt>
      <trkpt lat="45.10491" lon="6.06721">
        <ele>1932.4</ele>
        <time>2019-10-20T11:03:35Z</time>
      </trkpt>
      <trkpt lat="45.10509" lon="6.06729">
        <ele>1933.8</ele>
        <time>2019-10-20T11:03:41Z</time>
      </trkpt>
      <trkpt lat="45.10526" lon="6.06735">
        <ele>1935.2</ele>
        <time>2019-10-20T11:03:46Z</time>
      </trkpt>
      <trkpt lat="45.1054" lon="6.06743">
        <ele>1936.6</ele>
        <time>2019-10-20T11:03:51Z</time>
      </trkpt>
      <trkpt lat="45.10556" lon="6.06751">
        <ele>1938.4</ele>
        <time>2019-10-20T11:03:57Z</time>
      </trkpt>
      <trkpt lat="45.1057" lon="6.0676">
        <ele>1940.8</ele>
        <time>2019-10-20T11:04:02Z</time>
      </trkpt>
      <trkpt lat="45.10583" lon="6.06772">
        <ele>1944.1</ele>
        <time>2019-10-20T11:04:07Z</time>
      </trkpt>
      <trkpt lat="45.10596" lon="6.06787">
        <ele>1947.9</ele>
        <time>2019-10-20T11:04:13Z</time>
      </trkpt>
      <trkpt lat="45.10608" lon="6.06805">
        <ele>1950.6</ele>
        <time>2019-10-20T11:04:18Z</time>
      </trkpt>
      <trkpt lat="45.10619" lon="6.0682">
        <ele>1952.6</ele>
        <time>2019-10-20T11:04:23Z</time>
      </trkpt>
      <trkpt lat="45.10633" lon="6.0684">
        <ele>1955.6</ele>
        <time>2019-10-20T11:04:29Z</time>
      </trkpt>
      <trkpt lat="45.10644" lon="6.06853">
        <ele>1957.5</ele>
        <time>2019-10-20T11:04:34Z</time>
      </trkpt>
      <trkpt lat="45.10654" lon="6.06866">
        <ele>1958.9</ele>
        <time>2019-10-20T11:04:39Z</time>
      </trkpt>
      <trkpt lat="45.10664" lon="6.06877">
        <ele>1960</ele>
        <time>2019-10-20T11:04:44Z</time>
      </trkpt>
      <trkpt lat="45.10678" lon="6.06888">
        <ele>1960.9</ele>
        <time>2019-10-20T11:04:50Z</time>
      </trkpt>
      <trkpt lat="45.10689" lon="6.069">
        <ele>1961</ele>
        <time>2019-10-20T11:04:56Z</time>
      </trkpt>
      <trkpt lat="45.10701" lon="6.06916">
        <ele>1960</ele>
        <time>2019-10-20T11:05:01Z</time>
      </trkpt>
      <trkpt lat="45.10712" lon="6.06935">
        <ele>1958.5</ele>
        <time>2019-10-20T11:05:06Z</time>
      </trkpt>
      <trkpt lat="45.10722" lon="6.06954">
        <ele>1957.8</ele>
        <time>2019-10-20T11:05:11Z</time>
      </trkpt>
      <trkpt lat="45.10733" lon="6.06975">
        <ele>1958.8</ele>
        <time>2019-10-20T11:05:16Z</time>
      </trkpt>
      <trkpt lat="45.10744" lon="6.06991">
        <ele>1959.9</ele>
        <time>2019-10-20T11:05:23Z</time>
      </trkpt>
      <trkpt lat="45.10766" lon="6.07009">
        <ele>1962.5</ele>
        <time>2019-10-20T11:05:31Z</time>
      </trkpt>
      <trkpt lat="45.10785" lon="6.0702">
        <ele>1964.5</ele>
        <time>2019-10-20T11:05:36Z</time>
      </trkpt>
      <trkpt lat="45.10798" lon="6.07027">
        <ele>1965.5</ele>
        <time>2019-10-20T11:05:41Z</time>
      </trkpt>
      <trkpt lat="45.10817" lon="6.0703">
        <ele>1966.5</ele>
        <time>2019-10-20T11:05:46Z</time>
      </trkpt>
      <trkpt lat="45.10837" lon="6.07037">
        <ele>1968.3</ele>
        <time>2019-10-20T11:05:51Z</time>
      </trkpt>
      <trkpt lat="45.10853" lon="6.07033">
        <ele>1969.7</ele>
        <time>2019-10-20T11:05:58Z</time>
      </trkpt>
      <trkpt lat="45.10878" lon="6.07021">
        <ele>1972</ele>
        <time>2019-10-20T11:06:06Z</time>
      </trkpt>
      <trkpt lat="45.10885" lon="6.06996">
        <ele>1973.2</ele>
        <time>2019-10-20T11:06:11Z</time>
      </trkpt>
      <trkpt lat="45.10876" lon="6.06977">
        <ele>1974.1</ele>
        <time>2019-10-20T11:06:16Z</time>
      </trkpt>
      <trkpt lat="45.10881" lon="6.06945">
        <ele>1975.7</ele>
        <time>2019-10-20T11:06:21Z</time>
      </trkpt>
      <trkpt lat="45.10873" lon="6.06913">
        <ele>1979</ele>
        <time>2019-10-20T11:06:26Z</time>
      </trkpt>
      <trkpt lat="45.10849" lon="6.06899">
        <ele>1977.7</ele>
        <time>2019-10-20T11:06:31Z</time>
      </trkpt>
      <trkpt lat="45.10838" lon="6.06889">
        <ele>1977.6</ele>
        <time>2019-10-20T11:06:36Z</time>
      </trkpt>
      <trkpt lat="45.10834" lon="6.06875">
        <ele>1977.3</ele>
        <time>2019-10-20T11:06:43Z</time>
      </trkpt>
      <trkpt lat="45.10813" lon="6.06842">
        <ele>1975.6</ele>
        <time>2019-10-20T11:06:48Z</time>
      </trkpt>
      <trkpt lat="45.108" lon="6.06815">
        <ele>1975.5</ele>
        <time>2019-10-20T11:06:53Z</time>
      </trkpt>
      <trkpt lat="45.10783" lon="6.06798">
        <ele>1976.1</ele>
        <time>2019-10-20T11:06:58Z</time>
      </trkpt>
      <trkpt lat="45.10771" lon="6.06774">
        <ele>1976.6</ele>
        <time>2019-10-20T11:07:03Z</time>
      </trkpt>
      <trkpt lat="45.10757" lon="6.06742">
        <ele>1976.6</ele>
        <time>2019-10-20T11:07:08Z</time>
      </trkpt>
      <trkpt lat="45.10739" lon="6.06724">
        <ele>1976.6</ele>
        <time>2019-10-20T11:07:13Z</time>
      </trkpt>
      <trkpt lat="45.10725" lon="6.06696">
        <ele>1976.6</ele>
        <time>2019-10-20T11:07:18Z</time>
      </trkpt>
      <trkpt lat="45.10715" lon="6.0668">
        <ele>1976.6</ele>
        <time>2019-10-20T11:07:25Z</time>
      </trkpt>
      <trkpt lat="45.1068" lon="6.0664">
        <ele>1976.5</ele>
        <time>2019-10-20T11:07:30Z</time>
      </trkpt>
      <trkpt lat="45.10656" lon="6.0662">
        <ele>1976.5</ele>
        <time>2019-10-20T11:07:35Z</time>
      </trkpt>
      <trkpt lat="45.10635" lon="6.066">
        <ele>1976.5</ele>
        <time>2019-10-20T11:07:40Z</time>
      </trkpt>
      <trkpt lat="45.10615" lon="6.06572">
        <ele>1976.5</ele>
        <time>2019-10-20T11:07:45Z</time>
      </trkpt>
      <trkpt lat="45.1059" lon="6.06544">
        <ele>1976.4</ele>
        <time>2019-10-20T11:07:50Z</time>
      </trkpt>
      <trkpt lat="45.10576" lon="6.06536">
        <ele>1976.4</ele>
        <time>2019-10-20T11:07:57Z</time>
      </trkpt>
      <trkpt lat="45.10557" lon="6.06527">
        <ele>1976.2</ele>
        <time>2019-10-20T11:08:05Z</time>
      </trkpt>
      <trkpt lat="45.10512" lon="6.06512">
        <ele>1975.1</ele>
        <time>2019-10-20T11:08:10Z</time>
      </trkpt>
      <trkpt lat="45.10493" lon="6.06503">
        <ele>1975.2</ele>
        <time>2019-10-20T11:08:15Z</time>
      </trkpt>
      <trkpt lat="45.1047" lon="6.06498">
        <ele>1975.3</ele>
        <time>2019-10-20T11:08:20Z</time>
      </trkpt>
      <trkpt lat="45.10449" lon="6.06498">
        <ele>1975.8</ele>
        <time>2019-10-20T11:08:25Z</time>
      </trkpt>
      <trkpt lat="45.10423" lon="6.06489">
        <ele>1976.2</ele>
        <time>2019-10-20T11:08:30Z</time>
      </trkpt>
      <trkpt lat="45.10408" lon="6.06481">
        <ele>1975.9</ele>
        <time>2019-10-20T11:08:35Z</time>
      </trkpt>
      <trkpt lat="45.10387" lon="6.06475">
        <ele>1975.3</ele>
        <time>2019-10-20T11:08:41Z</time>
      </trkpt>
      <trkpt lat="45.1037" lon="6.06469">
        <ele>1975.5</ele>
        <time>2019-10-20T11:08:46Z</time>
      </trkpt>
      <trkpt lat="45.10352" lon="6.06456">
        <ele>1975.6</ele>
        <time>2019-10-20T11:08:51Z</time>
      </trkpt>
      <trkpt lat="45.10338" lon="6.0644">
        <ele>1974.7</ele>
        <time>2019-10-20T11:08:56Z</time>
      </trkpt>
      <trkpt lat="45.10318" lon="6.06423">
        <ele>1973.7</ele>
        <time>2019-10-20T11:09:01Z</time>
      </trkpt>
      <trkpt lat="45.10298" lon="6.06416">
        <ele>1973.6</ele>
        <time>2019-10-20T11:09:06Z</time>
      </trkpt>
      <trkpt lat="45.10281" lon="6.06415">
        <ele>1973.6</ele>
        <time>2019-10-20T11:09:11Z</time>
      </trkpt>
      <trkpt lat="45.1025" lon="6.06421">
        <ele>1973.5</ele>
        <time>2019-10-20T11:09:16Z</time>
      </trkpt>
      <trkpt lat="45.10224" lon="6.06419">
        <ele>1972.9</ele>
        <time>2019-10-20T11:09:21Z</time>
      </trkpt>
      <trkpt lat="45.10202" lon="6.0642">
        <ele>1972.5</ele>
        <time>2019-10-20T11:09:26Z</time>
      </trkpt>
      <trkpt lat="45.10177" lon="6.06426">
        <ele>1972.5</ele>
        <time>2019-10-20T11:09:31Z</time>
      </trkpt>
      <trkpt lat="45.10154" lon="6.06432">
        <ele>1972.6</ele>
        <time>2019-10-20T11:09:36Z</time>
      </trkpt>
      <trkpt lat="45.10132" lon="6.06439">
        <ele>1972.5</ele>
        <time>2019-10-20T11:09:41Z</time>
      </trkpt>
      <trkpt lat="45.1011" lon="6.06439">
        <ele>1972.3</ele>
        <time>2019-10-20T11:09:46Z</time>
      </trkpt>
      <trkpt lat="45.10088" lon="6.06447">
        <ele>1971.9</ele>
        <time>2019-10-20T11:09:52Z</time>
      </trkpt>
      <trkpt lat="45.10069" lon="6.06443">
        <ele>1971.8</ele>
        <time>2019-10-20T11:09:57Z</time>
      </trkpt>
      <trkpt lat="45.10058" lon="6.06442">
        <ele>1971.8</ele>
        <time>2019-10-20T11:10:02Z</time>
      </trkpt>
      <trkpt lat="45.10047" lon="6.0644">
        <ele>1971.8</ele>
        <time>2019-10-20T11:10:07Z</time>
      </trkpt>
      <trkpt lat="45.10033" lon="6.06435">
        <ele>1971.6</ele>
        <time>2019-10-20T11:10:12Z</time>
      </trkpt>
      <trkpt lat="45.10015" lon="6.06429">
        <ele>1971.2</ele>
        <time>2019-10-20T11:10:17Z</time>
      </trkpt>
      <trkpt lat="45.09996" lon="6.06422">
        <ele>1971</ele>
        <time>2019-10-20T11:10:22Z</time>
      </trkpt>
      <trkpt lat="45.09965" lon="6.06406">
        <ele>1970.8</ele>
        <time>2019-10-20T11:10:27Z</time>
      </trkpt>
      <trkpt lat="45.09942" lon="6.06393">
        <ele>1970.7</ele>
        <time>2019-10-20T11:10:32Z</time>
      </trkpt>
      <trkpt lat="45.09917" lon="6.06378">
        <ele>1970.5</ele>
        <time>2019-10-20T11:10:37Z</time>
      </trkpt>
      <trkpt lat="45.09903" lon="6.06371">
        <ele>1970.5</ele>
        <time>2019-10-20T11:10:42Z</time>
      </trkpt>
      <trkpt lat="45.09885" lon="6.06363">
        <ele>1970.3</ele>
        <time>2019-10-20T11:10:47Z</time>
      </trkpt>
      <trkpt lat="45.09859" lon="6.06357">
        <ele>1970.3</ele>
        <time>2019-10-20T11:10:52Z</time>
      </trkpt>
      <trkpt lat="45.0984" lon="6.06368">
        <ele>1969.6</ele>
        <time>2019-10-20T11:11:13Z</time>
      </trkpt>
      <trkpt lat="45.09841" lon="6.06365">
        <ele>1969.5</ele>
        <time>2019-10-20T11:11:31Z</time>
      </trkpt>
      <trkpt lat="45.09826" lon="6.06359">
        <ele>1968.4</ele>
        <time>2019-10-20T11:11:36Z</time>
      </trkpt>
      <trkpt lat="45.09802" lon="6.06354">
        <ele>1967.7</ele>
        <time>2019-10-20T11:11:41Z</time>
      </trkpt>
      <trkpt lat="45.09791" lon="6.06348">
        <ele>1967.9</ele>
        <time>2019-10-20T11:11:47Z</time>
      </trkpt>
      <trkpt lat="45.09767" lon="6.06334">
        <ele>1968</ele>
        <time>2019-10-20T11:11:52Z</time>
      </trkpt>
      <trkpt lat="45.0975" lon="6.06337">
        <ele>1967.9</ele>
        <time>2019-10-20T11:11:57Z</time>
      </trkpt>
      <trkpt lat="45.09727" lon="6.06337">
        <ele>1967.9</ele>
        <time>2019-10-20T11:12:02Z</time>
      </trkpt>
      <trkpt lat="45.09707" lon="6.06335">
        <ele>1968</ele>
        <time>2019-10-20T11:12:07Z</time>
      </trkpt>
      <trkpt lat="45.0969" lon="6.0633">
        <ele>1968.7</ele>
        <time>2019-10-20T11:12:13Z</time>
      </trkpt>
      <trkpt lat="45.09676" lon="6.06328">
        <ele>1969.4</ele>
        <time>2019-10-20T11:12:18Z</time>
      </trkpt>
      <trkpt lat="45.0966" lon="6.06315">
        <ele>1969.2</ele>
        <time>2019-10-20T11:12:23Z</time>
      </trkpt>
      <trkpt lat="45.09643" lon="6.063">
        <ele>1968.7</ele>
        <time>2019-10-20T11:12:28Z</time>
      </trkpt>
      <trkpt lat="45.09632" lon="6.06285">
        <ele>1968.4</ele>
        <time>2019-10-20T11:12:33Z</time>
      </trkpt>
      <trkpt lat="45.09628" lon="6.06276">
        <ele>1968.3</ele>
        <time>2019-10-20T11:12:38Z</time>
      </trkpt>
      <trkpt lat="45.09625" lon="6.06277">
        <ele>1968.2</ele>
        <time>2019-10-20T11:13:00Z</time>
      </trkpt>
      <trkpt lat="45.09614" lon="6.06263">
        <ele>1968.1</ele>
        <time>2019-10-20T11:13:05Z</time>
      </trkpt>
      <trkpt lat="45.09602" lon="6.06245">
        <ele>1968</ele>
        <time>2019-10-20T11:13:10Z</time>
      </trkpt>
      <trkpt lat="45.09592" lon="6.06225">
        <ele>1967.9</ele>
        <time>2019-10-20T11:13:15Z</time>
      </trkpt>
      <trkpt lat="45.09583" lon="6.06206">
        <ele>1967.9</ele>
        <time>2019-10-20T11:13:20Z</time>
      </trkpt>
      <trkpt lat="45.09579" lon="6.06183">
        <ele>1967.7</ele>
        <time>2019-10-20T11:13:25Z</time>
      </trkpt>
      <trkpt lat="45.09581" lon="6.06165">
        <ele>1967.6</ele>
        <time>2019-10-20T11:13:53Z</time>
      </trkpt>
      <trkpt lat="45.0958" lon="6.06153">
        <ele>1967.6</ele>
        <time>2019-10-20T11:13:58Z</time>
      </trkpt>
      <trkpt lat="45.09584" lon="6.06128">
        <ele>1967.2</ele>
        <time>2019-10-20T11:14:03Z</time>
      </trkpt>
      <trkpt lat="45.0959" lon="6.06104">
        <ele>1966.7</ele>
        <time>2019-10-20T11:14:08Z</time>
      </trkpt>
      <trkpt lat="45.09597" lon="6.06076">
        <ele>1966.6</ele>
        <time>2019-10-20T11:14:13Z</time>
      </trkpt>
      <trkpt lat="45.09601" lon="6.06058">
        <ele>1966.6</ele>
        <time>2019-10-20T11:14:18Z</time>
      </trkpt>
      <trkpt lat="45.09609" lon="6.06027">
        <ele>1966.4</ele>
        <time>2019-10-20T11:14:24Z</time>
      </trkpt>
      <trkpt lat="45.09617" lon="6.05976">
        <ele>1965.6</ele>
        <time>2019-10-20T11:14:29Z</time>
      </trkpt>
      <trkpt lat="45.09617" lon="6.05957">
        <ele>1965.5</ele>
        <time>2019-10-20T11:14:34Z</time>
      </trkpt>
      <trkpt lat="45.09611" lon="6.05927">
        <ele>1965.2</ele>
        <time>2019-10-20T11:14:39Z</time>
      </trkpt>
      <trkpt lat="45.09618" lon="6.05899">
        <ele>1964.7</ele>
        <time>2019-10-20T11:14:44Z</time>
      </trkpt>
      <trkpt lat="45.09622" lon="6.05884">
        <ele>1964.4</ele>
        <time>2019-10-20T11:14:49Z</time>
      </trkpt>
      <trkpt lat="45.09631" lon="6.05864">
        <ele>1964.1</ele>
        <time>2019-10-20T11:14:54Z</time>
      </trkpt>
      <trkpt lat="45.09645" lon="6.05846">
        <ele>1963.9</ele>
        <time>2019-10-20T11:15:00Z</time>
      </trkpt>
      <trkpt lat="45.09659" lon="6.05827">
        <ele>1963.8</ele>
        <time>2019-10-20T11:15:05Z</time>
      </trkpt>
      <trkpt lat="45.09674" lon="6.05806">
        <ele>1963.5</ele>
        <time>2019-10-20T11:15:10Z</time>
      </trkpt>
      <trkpt lat="45.09689" lon="6.05787">
        <ele>1963.2</ele>
        <time>2019-10-20T11:15:16Z</time>
      </trkpt>
      <trkpt lat="45.09687" lon="6.05764">
        <ele>1963.1</ele>
        <time>2019-10-20T11:15:21Z</time>
      </trkpt>
      <trkpt lat="45.09686" lon="6.05774">
        <ele>1963.3</ele>
        <time>2019-10-20T11:15:26Z</time>
      </trkpt>
      <trkpt lat="45.09686" lon="6.05769">
        <ele>1963.3</ele>
        <time>2019-10-20T11:15:35Z</time>
      </trkpt>
      <trkpt lat="45.09683" lon="6.05755">
        <ele>1963.5</ele>
        <time>2019-10-20T11:15:40Z</time>
      </trkpt>
      <trkpt lat="45.09682" lon="6.05746">
        <ele>1963.5</ele>
        <time>2019-10-20T11:15:46Z</time>
      </trkpt>
      <trkpt lat="45.09683" lon="6.05744">
        <ele>1963.5</ele>
        <time>2019-10-20T11:16:04Z</time>
      </trkpt>
      <trkpt lat="45.09679" lon="6.05737">
        <ele>1963.4</ele>
        <time>2019-10-20T11:16:09Z</time>
      </trkpt>
      <trkpt lat="45.09674" lon="6.05717">
        <ele>1963</ele>
        <time>2019-10-20T11:16:14Z</time>
      </trkpt>
      <trkpt lat="45.09668" lon="6.0569">
        <ele>1962.8</ele>
        <time>2019-10-20T11:16:19Z</time>
      </trkpt>
      <trkpt lat="45.09668" lon="6.05663">
        <ele>1962.1</ele>
        <time>2019-10-20T11:16:24Z</time>
      </trkpt>
      <trkpt lat="45.09666" lon="6.05634">
        <ele>1960.8</ele>
        <time>2019-10-20T11:16:29Z</time>
      </trkpt>
      <trkpt lat="45.09665" lon="6.05603">
        <ele>1959.6</ele>
        <time>2019-10-20T11:16:34Z</time>
      </trkpt>
      <trkpt lat="45.09663" lon="6.05577">
        <ele>1959.3</ele>
        <time>2019-10-20T11:16:39Z</time>
      </trkpt>
      <trkpt lat="45.09654" lon="6.05554">
        <ele>1959.2</ele>
        <time>2019-10-20T11:16:44Z</time>
      </trkpt>
      <trkpt lat="45.09642" lon="6.05534">
        <ele>1959.2</ele>
        <time>2019-10-20T11:16:49Z</time>
      </trkpt>
      <trkpt lat="45.09629" lon="6.05514">
        <ele>1959</ele>
        <time>2019-10-20T11:16:54Z</time>
      </trkpt>
      <trkpt lat="45.09621" lon="6.05492">
        <ele>1958.6</ele>
        <time>2019-10-20T11:16:59Z</time>
      </trkpt>
      <trkpt lat="45.09613" lon="6.05494">
        <ele>1958.4</ele>
        <time>2019-10-20T11:17:15Z</time>
      </trkpt>
      <trkpt lat="45.09614" lon="6.05491">
        <ele>1958.3</ele>
        <time>2019-10-20T11:17:36Z</time>
      </trkpt>
      <trkpt lat="45.09619" lon="6.05471">
        <ele>1958.2</ele>
        <time>2019-10-20T11:17:41Z</time>
      </trkpt>
      <trkpt lat="45.09619" lon="6.05448">
        <ele>1957.8</ele>
        <time>2019-10-20T11:17:46Z</time>
      </trkpt>
      <trkpt lat="45.09619" lon="6.05421">
        <ele>1957.3</ele>
        <time>2019-10-20T11:17:51Z</time>
      </trkpt>
      <trkpt lat="45.09632" lon="6.05388">
        <ele>1956.9</ele>
        <time>2019-10-20T11:17:57Z</time>
      </trkpt>
      <trkpt lat="45.09637" lon="6.05357">
        <ele>1956.3</ele>
        <time>2019-10-20T11:18:02Z</time>
      </trkpt>
      <trkpt lat="45.09636" lon="6.05324">
        <ele>1955.7</ele>
        <time>2019-10-20T11:18:07Z</time>
      </trkpt>
      <trkpt lat="45.09634" lon="6.05299">
        <ele>1955.3</ele>
        <time>2019-10-20T11:18:12Z</time>
      </trkpt>
      <trkpt lat="45.09625" lon="6.05272">
        <ele>1955.4</ele>
        <time>2019-10-20T11:18:17Z</time>
      </trkpt>
      <trkpt lat="45.09611" lon="6.05251">
        <ele>1955.4</ele>
        <time>2019-10-20T11:18:22Z</time>
      </trkpt>
      <trkpt lat="45.09596" lon="6.05229">
        <ele>1954.9</ele>
        <time>2019-10-20T11:18:27Z</time>
      </trkpt>
      <trkpt lat="45.09582" lon="6.05201">
        <ele>1954.4</ele>
        <time>2019-10-20T11:18:32Z</time>
      </trkpt>
      <trkpt lat="45.09565" lon="6.05178">
        <ele>1954.2</ele>
        <time>2019-10-20T11:18:37Z</time>
      </trkpt>
      <trkpt lat="45.09543" lon="6.05156">
        <ele>1953.8</ele>
        <time>2019-10-20T11:18:42Z</time>
      </trkpt>
      <trkpt lat="45.0952" lon="6.05127">
        <ele>1953.4</ele>
        <time>2019-10-20T11:18:47Z</time>
      </trkpt>
      <trkpt lat="45.09501" lon="6.05107">
        <ele>1953.1</ele>
        <time>2019-10-20T11:18:52Z</time>
      </trkpt>
      <trkpt lat="45.09487" lon="6.05081">
        <ele>1952.3</ele>
        <time>2019-10-20T11:18:57Z</time>
      </trkpt>
      <trkpt lat="45.09467" lon="6.05059">
        <ele>1950.9</ele>
        <time>2019-10-20T11:19:02Z</time>
      </trkpt>
      <trkpt lat="45.09448" lon="6.05033">
        <ele>1950.2</ele>
        <time>2019-10-20T11:19:07Z</time>
      </trkpt>
      <trkpt lat="45.09427" lon="6.05021">
        <ele>1950.3</ele>
        <time>2019-10-20T11:19:12Z</time>
      </trkpt>
      <trkpt lat="45.09402" lon="6.05009">
        <ele>1949.3</ele>
        <time>2019-10-20T11:19:17Z</time>
      </trkpt>
      <trkpt lat="45.09386" lon="6.05001">
        <ele>1948.5</ele>
        <time>2019-10-20T11:19:23Z</time>
      </trkpt>
      <trkpt lat="45.09368" lon="6.04988">
        <ele>1947.6</ele>
        <time>2019-10-20T11:19:28Z</time>
      </trkpt>
      <trkpt lat="45.09351" lon="6.04983">
        <ele>1946.9</ele>
        <time>2019-10-20T11:19:33Z</time>
      </trkpt>
      <trkpt lat="45.0934" lon="6.04978">
        <ele>1946.5</ele>
        <time>2019-10-20T11:19:38Z</time>
      </trkpt>
      <trkpt lat="45.09339" lon="6.04975">
        <ele>1946.5</ele>
        <time>2019-10-20T11:19:53Z</time>
      </trkpt>
      <trkpt lat="45.09345" lon="6.04968">
        <ele>1946.3</ele>
        <time>2019-10-20T11:20:02Z</time>
      </trkpt>
      <trkpt lat="45.09343" lon="6.04971">
        <ele>1946.3</ele>
        <time>2019-10-20T11:20:16Z</time>
      </trkpt>
      <trkpt lat="45.09341" lon="6.04975">
        <ele>1946.3</ele>
        <time>2019-10-20T11:20:21Z</time>
      </trkpt>
      <trkpt lat="45.09344" lon="6.04972">
        <ele>1946.4</ele>
        <time>2019-10-20T11:20:38Z</time>
      </trkpt>
      <trkpt lat="45.09333" lon="6.04962">
        <ele>1946.8</ele>
        <time>2019-10-20T11:20:43Z</time>
      </trkpt>
      <trkpt lat="45.09317" lon="6.04949">
        <ele>1947.5</ele>
        <time>2019-10-20T11:20:48Z</time>
      </trkpt>
      <trkpt lat="45.09304" lon="6.04938">
        <ele>1948</ele>
        <time>2019-10-20T11:20:53Z</time>
      </trkpt>
      <trkpt lat="45.09294" lon="6.04929">
        <ele>1948.5</ele>
        <time>2019-10-20T11:20:58Z</time>
      </trkpt>
      <trkpt lat="45.09285" lon="6.0492">
        <ele>1948.9</ele>
        <time>2019-10-20T11:21:03Z</time>
      </trkpt>
      <trkpt lat="45.09277" lon="6.0491">
        <ele>1949.2</ele>
        <time>2019-10-20T11:21:08Z</time>
      </trkpt>
      <trkpt lat="45.09266" lon="6.04903">
        <ele>1949.6</ele>
        <time>2019-10-20T11:21:13Z</time>
      </trkpt>
      <trkpt lat="45.09254" lon="6.04898">
        <ele>1949.9</ele>
        <time>2019-10-20T11:21:18Z</time>
      </trkpt>
      <trkpt lat="45.09242" lon="6.04894">
        <ele>1950.3</ele>
        <time>2019-10-20T11:21:23Z</time>
      </trkpt>
      <trkpt lat="45.0923" lon="6.04891">
        <ele>1950.7</ele>
        <time>2019-10-20T11:21:28Z</time>
      </trkpt>
      <trkpt lat="45.09219" lon="6.04886">
        <ele>1951</ele>
        <time>2019-10-20T11:21:33Z</time>
      </trkpt>
      <trkpt lat="45.09207" lon="6.04883">
        <ele>1951.3</ele>
        <time>2019-10-20T11:21:38Z</time>
      </trkpt>
      <trkpt lat="45.09195" lon="6.04882">
        <ele>1951.7</ele>
        <time>2019-10-20T11:21:43Z</time>
      </trkpt>
      <trkpt lat="45.09183" lon="6.04886">
        <ele>1952</ele>
        <time>2019-10-20T11:21:49Z</time>
      </trkpt>
      <trkpt lat="45.09175" lon="6.04888">
        <ele>1952.3</ele>
        <time>2019-10-20T11:21:54Z</time>
      </trkpt>
      <trkpt lat="45.09165" lon="6.04886">
        <ele>1951.6</ele>
        <time>2019-10-20T11:21:59Z</time>
      </trkpt>
      <trkpt lat="45.09152" lon="6.0488">
        <ele>1949.9</ele>
        <time>2019-10-20T11:22:04Z</time>
      </trkpt>
      <trkpt lat="45.09136" lon="6.04872">
        <ele>1947.5</ele>
        <time>2019-10-20T11:22:09Z</time>
      </trkpt>
      <trkpt lat="45.0912" lon="6.04864">
        <ele>1944.3</ele>
        <time>2019-10-20T11:22:14Z</time>
      </trkpt>
      <trkpt lat="45.09102" lon="6.04855">
        <ele>1940.5</ele>
        <time>2019-10-20T11:22:19Z</time>
      </trkpt>
      <trkpt lat="45.0909" lon="6.04861">
        <ele>1937.6</ele>
        <time>2019-10-20T11:22:25Z</time>
      </trkpt>
      <trkpt lat="45.09087" lon="6.04859">
        <ele>1936.7</ele>
        <time>2019-10-20T11:22:45Z</time>
      </trkpt>
      <trkpt lat="45.09086" lon="6.04858">
        <ele>1936.5</ele>
        <time>2019-10-20T11:22:56Z</time>
      </trkpt>
      <trkpt lat="45.09084" lon="6.04857">
        <ele>1936.1</ele>
        <time>2019-10-20T11:23:03Z</time>
      </trkpt>
      <trkpt lat="45.09085" lon="6.04855">
        <ele>1935.8</ele>
        <time>2019-10-20T11:23:11Z</time>
      </trkpt>
      <trkpt lat="45.09085" lon="6.04853">
        <ele>1935.4</ele>
        <time>2019-10-20T11:23:18Z</time>
      </trkpt>
      <trkpt lat="45.09079" lon="6.04866">
        <ele>1933.3</ele>
        <time>2019-10-20T11:23:23Z</time>
      </trkpt>
      <trkpt lat="45.09066" lon="6.04868">
        <ele>1931.1</ele>
        <time>2019-10-20T11:23:29Z</time>
      </trkpt>
      <trkpt lat="45.09055" lon="6.04852">
        <ele>1929.7</ele>
        <time>2019-10-20T11:23:34Z</time>
      </trkpt>
      <trkpt lat="45.09006" lon="6.0481">
        <ele>1936.5</ele>
        <time>2019-10-20T11:23:39Z</time>
      </trkpt>
      <trkpt lat="45.08979" lon="6.0479">
        <ele>1934.2</ele>
        <time>2019-10-20T11:23:45Z</time>
      </trkpt>
      <trkpt lat="45.08966" lon="6.04787">
        <ele>1933.5</ele>
        <time>2019-10-20T11:23:50Z</time>
      </trkpt>
      <trkpt lat="45.08951" lon="6.0478">
        <ele>1932.8</ele>
        <time>2019-10-20T11:23:55Z</time>
      </trkpt>
      <trkpt lat="45.08938" lon="6.04772">
        <ele>1932.2</ele>
        <time>2019-10-20T11:24:00Z</time>
      </trkpt>
      <trkpt lat="45.08928" lon="6.04767">
        <ele>1931.7</ele>
        <time>2019-10-20T11:24:06Z</time>
      </trkpt>
      <trkpt lat="45.08916" lon="6.04761">
        <ele>1931.1</ele>
        <time>2019-10-20T11:24:12Z</time>
      </trkpt>
      <trkpt lat="45.08906" lon="6.04758">
        <ele>1930.7</ele>
        <time>2019-10-20T11:24:17Z</time>
      </trkpt>
      <trkpt lat="45.08898" lon="6.04752">
        <ele>1930.7</ele>
        <time>2019-10-20T11:24:22Z</time>
      </trkpt>
      <trkpt lat="45.08888" lon="6.04751">
        <ele>1930.8</ele>
        <time>2019-10-20T11:24:27Z</time>
      </trkpt>
      <trkpt lat="45.08881" lon="6.04749">
        <ele>1931.2</ele>
        <time>2019-10-20T11:24:32Z</time>
      </trkpt>
      <trkpt lat="45.08872" lon="6.04744">
        <ele>1932.1</ele>
        <time>2019-10-20T11:24:37Z</time>
      </trkpt>
      <trkpt lat="45.08865" lon="6.04742">
        <ele>1933.1</ele>
        <time>2019-10-20T11:24:43Z</time>
      </trkpt>
      <trkpt lat="45.08857" lon="6.04739">
        <ele>1934.3</ele>
        <time>2019-10-20T11:24:48Z</time>
      </trkpt>
      <trkpt lat="45.08846" lon="6.0474">
        <ele>1935.8</ele>
        <time>2019-10-20T11:24:53Z</time>
      </trkpt>
      <trkpt lat="45.08838" lon="6.0474">
        <ele>1936.7</ele>
        <time>2019-10-20T11:24:58Z</time>
      </trkpt>
      <trkpt lat="45.08839" lon="6.04734">
        <ele>1937.1</ele>
        <time>2019-10-20T11:25:07Z</time>
      </trkpt>
      <trkpt lat="45.08839" lon="6.0473">
        <ele>1937.4</ele>
        <time>2019-10-20T11:25:13Z</time>
      </trkpt>
      <trkpt lat="45.08836" lon="6.04726">
        <ele>1937.9</ele>
        <time>2019-10-20T11:25:18Z</time>
      </trkpt>
      <trkpt lat="45.08832" lon="6.04728">
        <ele>1938.2</ele>
        <time>2019-10-20T11:25:23Z</time>
      </trkpt>
      <trkpt lat="45.08828" lon="6.04729">
        <ele>1938.5</ele>
        <time>2019-10-20T11:25:28Z</time>
      </trkpt>
      <trkpt lat="45.08829" lon="6.04722">
        <ele>1938.9</ele>
        <time>2019-10-20T11:25:33Z</time>
      </trkpt>
      <trkpt lat="45.08826" lon="6.0472">
        <ele>1939.2</ele>
        <time>2019-10-20T11:25:38Z</time>
      </trkpt>
      <trkpt lat="45.08823" lon="6.04717">
        <ele>1939.5</ele>
        <time>2019-10-20T11:25:43Z</time>
      </trkpt>
      <trkpt lat="45.08822" lon="6.04715">
        <ele>1939.7</ele>
        <time>2019-10-20T11:25:48Z</time>
      </trkpt>
      <trkpt lat="45.08824" lon="6.04713">
        <ele>1939.9</ele>
        <time>2019-10-20T11:25:53Z</time>
      </trkpt>
      <trkpt lat="45.08824" lon="6.04718">
        <ele>1940.2</ele>
        <time>2019-10-20T11:26:50Z</time>
      </trkpt>
      <trkpt lat="45.08828" lon="6.0472">
        <ele>1940.5</ele>
        <time>2019-10-20T11:26:56Z</time>
      </trkpt>
      <trkpt lat="45.08829" lon="6.04721">
        <ele>1940.7</ele>
        <time>2019-10-20T11:27:02Z</time>
      </trkpt>
      <trkpt lat="45.08835" lon="6.04725">
        <ele>1941.3</ele>
        <time>2019-10-20T11:27:07Z</time>
      </trkpt>
      <trkpt lat="45.08839" lon="6.04731">
        <ele>1941.8</ele>
        <time>2019-10-20T11:27:13Z</time>
      </trkpt>
      <trkpt lat="45.0884" lon="6.04732">
        <ele>1941.9</ele>
        <time>2019-10-20T11:27:28Z</time>
      </trkpt>
      <trkpt lat="45.08841" lon="6.04733">
        <ele>1942</ele>
        <time>2019-10-20T11:27:33Z</time>
      </trkpt>
      <trkpt lat="45.08841" lon="6.04736">
        <ele>1942.2</ele>
        <time>2019-10-20T11:27:39Z</time>
      </trkpt>
      <trkpt lat="45.0884" lon="6.04736">
        <ele>1942.3</ele>
        <time>2019-10-20T11:27:52Z</time>
      </trkpt>
      <trkpt lat="45.0884" lon="6.04738">
        <ele>1942.5</ele>
        <time>2019-10-20T11:28:01Z</time>
      </trkpt>
      <trkpt lat="45.08841" lon="6.04743">
        <ele>1942.8</ele>
        <time>2019-10-20T11:28:06Z</time>
      </trkpt>
      <trkpt lat="45.08843" lon="6.04747">
        <ele>1943.1</ele>
        <time>2019-10-20T11:28:12Z</time>
      </trkpt>
      <trkpt lat="45.08848" lon="6.04737">
        <ele>1943.7</ele>
        <time>2019-10-20T11:28:17Z</time>
      </trkpt>
      <trkpt lat="45.08841" lon="6.04723">
        <ele>1944.9</ele>
        <time>2019-10-20T11:28:22Z</time>
      </trkpt>
      <trkpt lat="45.08833" lon="6.04707">
        <ele>1947.5</ele>
        <time>2019-10-20T11:28:27Z</time>
      </trkpt>
      <trkpt lat="45.0882" lon="6.04689">
        <ele>1945.3</ele>
        <time>2019-10-20T11:28:32Z</time>
      </trkpt>
      <trkpt lat="45.08797" lon="6.04676">
        <ele>1940.8</ele>
        <time>2019-10-20T11:28:37Z</time>
      </trkpt>
      <trkpt lat="45.08782" lon="6.04675">
        <ele>1936.6</ele>
        <time>2019-10-20T11:28:42Z</time>
      </trkpt>
      <trkpt lat="45.0879" lon="6.04654">
        <ele>1932.1</ele>
        <time>2019-10-20T11:28:48Z</time>
      </trkpt>
      <trkpt lat="45.08787" lon="6.04629">
        <ele>1927.9</ele>
        <time>2019-10-20T11:28:53Z</time>
      </trkpt>
      <trkpt lat="45.08772" lon="6.04616">
        <ele>1923.9</ele>
        <time>2019-10-20T11:28:58Z</time>
      </trkpt>
      <trkpt lat="45.08769" lon="6.0459">
        <ele>1919.3</ele>
        <time>2019-10-20T11:29:03Z</time>
      </trkpt>
      <trkpt lat="45.08747" lon="6.04584">
        <ele>1914.9</ele>
        <time>2019-10-20T11:29:08Z</time>
      </trkpt>
      <trkpt lat="45.08727" lon="6.04568">
        <ele>1910.6</ele>
        <time>2019-10-20T11:29:13Z</time>
      </trkpt>
      <trkpt lat="45.08703" lon="6.0455">
        <ele>1903.8</ele>
        <time>2019-10-20T11:29:18Z</time>
      </trkpt>
      <trkpt lat="45.08686" lon="6.04537">
        <ele>1898.8</ele>
        <time>2019-10-20T11:29:23Z</time>
      </trkpt>
      <trkpt lat="45.08684" lon="6.04535">
        <ele>1898.1</ele>
        <time>2019-10-20T11:29:36Z</time>
      </trkpt>
      <trkpt lat="45.08678" lon="6.04535">
        <ele>1896.5</ele>
        <time>2019-10-20T11:29:51Z</time>
      </trkpt>
      <trkpt lat="45.0866" lon="6.04528">
        <ele>1892</ele>
        <time>2019-10-20T11:29:56Z</time>
      </trkpt>
      <trkpt lat="45.08654" lon="6.04519">
        <ele>1890</ele>
        <time>2019-10-20T11:30:01Z</time>
      </trkpt>
      <trkpt lat="45.08669" lon="6.04496">
        <ele>1887.9</ele>
        <time>2019-10-20T11:30:06Z</time>
      </trkpt>
      <trkpt lat="45.08678" lon="6.0448">
        <ele>1885.3</ele>
        <time>2019-10-20T11:30:11Z</time>
      </trkpt>
      <trkpt lat="45.08682" lon="6.04475">
        <ele>1884.5</ele>
        <time>2019-10-20T11:30:16Z</time>
      </trkpt>
      <trkpt lat="45.08685" lon="6.04476">
        <ele>1884.1</ele>
        <time>2019-10-20T11:30:33Z</time>
      </trkpt>
      <trkpt lat="45.08687" lon="6.04482">
        <ele>1883.3</ele>
        <time>2019-10-20T11:30:54Z</time>
      </trkpt>
      <trkpt lat="45.08682" lon="6.04484">
        <ele>1884.6</ele>
        <time>2019-10-20T11:30:59Z</time>
      </trkpt>
      <trkpt lat="45.0868" lon="6.04487">
        <ele>1884.9</ele>
        <time>2019-10-20T11:31:04Z</time>
      </trkpt>
      <trkpt lat="45.08677" lon="6.04489">
        <ele>1885.3</ele>
        <time>2019-10-20T11:31:11Z</time>
      </trkpt>
      <trkpt lat="45.08678" lon="6.04487">
        <ele>1885.6</ele>
        <time>2019-10-20T11:31:16Z</time>
      </trkpt>
      <trkpt lat="45.08675" lon="6.04491">
        <ele>1886.3</ele>
        <time>2019-10-20T11:31:21Z</time>
      </trkpt>
      <trkpt lat="45.08669" lon="6.04498">
        <ele>1887.7</ele>
        <time>2019-10-20T11:31:26Z</time>
      </trkpt>
      <trkpt lat="45.08662" lon="6.04508">
        <ele>1889</ele>
        <time>2019-10-20T11:31:31Z</time>
      </trkpt>
      <trkpt lat="45.08654" lon="6.04516">
        <ele>1889.9</ele>
        <time>2019-10-20T11:31:36Z</time>
      </trkpt>
      <trkpt lat="45.08651" lon="6.04528">
        <ele>1890</ele>
        <time>2019-10-20T11:31:41Z</time>
      </trkpt>
      <trkpt lat="45.08658" lon="6.04543">
        <ele>1886.9</ele>
        <time>2019-10-20T11:31:46Z</time>
      </trkpt>
      <trkpt lat="45.08659" lon="6.04556">
        <ele>1885.2</ele>
        <time>2019-10-20T11:31:51Z</time>
      </trkpt>
      <trkpt lat="45.08661" lon="6.0456">
        <ele>1884.6</ele>
        <time>2019-10-20T11:31:57Z</time>
      </trkpt>
      <trkpt lat="45.08664" lon="6.0456">
        <ele>1884.1</ele>
        <time>2019-10-20T11:32:04Z</time>
      </trkpt>
      <trkpt lat="45.08668" lon="6.04583">
        <ele>1881.4</ele>
        <time>2019-10-20T11:32:09Z</time>
      </trkpt>
      <trkpt lat="45.08676" lon="6.04623">
        <ele>1874.8</ele>
        <time>2019-10-20T11:32:15Z</time>
      </trkpt>
      <trkpt lat="45.08676" lon="6.04621">
        <ele>1874.6</ele>
        <time>2019-10-20T11:32:21Z</time>
      </trkpt>
      <trkpt lat="45.08675" lon="6.04618">
        <ele>1874.1</ele>
        <time>2019-10-20T11:32:28Z</time>
      </trkpt>
      <trkpt lat="45.0866" lon="6.04606">
        <ele>1869.9</ele>
        <time>2019-10-20T11:32:33Z</time>
      </trkpt>
      <trkpt lat="45.08658" lon="6.04606">
        <ele>1869.4</ele>
        <time>2019-10-20T11:32:38Z</time>
      </trkpt>
      <trkpt lat="45.08657" lon="6.04626">
        <ele>1866.4</ele>
        <time>2019-10-20T11:32:43Z</time>
      </trkpt>
      <trkpt lat="45.08653" lon="6.04631">
        <ele>1865</ele>
        <time>2019-10-20T11:32:48Z</time>
      </trkpt>
      <trkpt lat="45.08647" lon="6.04629">
        <ele>1863.1</ele>
        <time>2019-10-20T11:32:53Z</time>
      </trkpt>
      <trkpt lat="45.08648" lon="6.04628">
        <ele>1862.6</ele>
        <time>2019-10-20T11:32:58Z</time>
      </trkpt>
      <trkpt lat="45.08649" lon="6.04629">
        <ele>1862.2</ele>
        <time>2019-10-20T11:33:03Z</time>
      </trkpt>
      <trkpt lat="45.08647" lon="6.0463">
        <ele>1861.6</ele>
        <time>2019-10-20T11:33:09Z</time>
      </trkpt>
      <trkpt lat="45.08646" lon="6.04632">
        <ele>1861.1</ele>
        <time>2019-10-20T11:33:14Z</time>
      </trkpt>
      <trkpt lat="45.08649" lon="6.04635">
        <ele>1860.1</ele>
        <time>2019-10-20T11:33:20Z</time>
      </trkpt>
      <trkpt lat="45.0865" lon="6.04637">
        <ele>1859.5</ele>
        <time>2019-10-20T11:33:26Z</time>
      </trkpt>
      <trkpt lat="45.08651" lon="6.04636">
        <ele>1859.2</ele>
        <time>2019-10-20T11:33:44Z</time>
      </trkpt>
      <trkpt lat="45.08649" lon="6.0463">
        <ele>1857.9</ele>
        <time>2019-10-20T11:33:49Z</time>
      </trkpt>
      <trkpt lat="45.08651" lon="6.04626">
        <ele>1857</ele>
        <time>2019-10-20T11:33:54Z</time>
      </trkpt>
      <trkpt lat="45.08652" lon="6.04632">
        <ele>1855.5</ele>
        <time>2019-10-20T11:33:59Z</time>
      </trkpt>
      <trkpt lat="45.08651" lon="6.04642">
        <ele>1853.5</ele>
        <time>2019-10-20T11:34:04Z</time>
      </trkpt>
      <trkpt lat="45.08648" lon="6.04648">
        <ele>1851.6</ele>
        <time>2019-10-20T11:34:09Z</time>
      </trkpt>
      <trkpt lat="45.08644" lon="6.04651">
        <ele>1849.8</ele>
        <time>2019-10-20T11:34:16Z</time>
      </trkpt>
      <trkpt lat="45.08642" lon="6.0465">
        <ele>1849.2</ele>
        <time>2019-10-20T11:34:21Z</time>
      </trkpt>
      <trkpt lat="45.08636" lon="6.04647">
        <ele>1846.8</ele>
        <time>2019-10-20T11:34:30Z</time>
      </trkpt>
      <trkpt lat="45.08636" lon="6.0466">
        <ele>1843.9</ele>
        <time>2019-10-20T11:34:35Z</time>
      </trkpt>
      <trkpt lat="45.08631" lon="6.04654">
        <ele>1842.1</ele>
        <time>2019-10-20T11:34:40Z</time>
      </trkpt>
      <trkpt lat="45.08619" lon="6.04635">
        <ele>1838.9</ele>
        <time>2019-10-20T11:34:45Z</time>
      </trkpt>
      <trkpt lat="45.08614" lon="6.04632">
        <ele>1838.1</ele>
        <time>2019-10-20T11:34:51Z</time>
      </trkpt>
      <trkpt lat="45.08611" lon="6.04635">
        <ele>1837.7</ele>
        <time>2019-10-20T11:35:07Z</time>
      </trkpt>
      <trkpt lat="45.08605" lon="6.04629">
        <ele>1836.8</ele>
        <time>2019-10-20T11:35:12Z</time>
      </trkpt>
      <trkpt lat="45.08603" lon="6.04628">
        <ele>1836.7</ele>
        <time>2019-10-20T11:35:18Z</time>
      </trkpt>
      <trkpt lat="45.08602" lon="6.04625">
        <ele>1836.4</ele>
        <time>2019-10-20T11:35:24Z</time>
      </trkpt>
      <trkpt lat="45.08592" lon="6.04615">
        <ele>1835.4</ele>
        <time>2019-10-20T11:35:29Z</time>
      </trkpt>
      <trkpt lat="45.08584" lon="6.04606">
        <ele>1834.6</ele>
        <time>2019-10-20T11:35:34Z</time>
      </trkpt>
      <trkpt lat="45.08575" lon="6.04598">
        <ele>1833.8</ele>
        <time>2019-10-20T11:35:39Z</time>
      </trkpt>
      <trkpt lat="45.08563" lon="6.04587">
        <ele>1832.7</ele>
        <time>2019-10-20T11:35:44Z</time>
      </trkpt>
      <trkpt lat="45.08528" lon="6.04568">
        <ele>1828.8</ele>
        <time>2019-10-20T11:35:49Z</time>
      </trkpt>
      <trkpt lat="45.0851" lon="6.04562">
        <ele>1826.5</ele>
        <time>2019-10-20T11:35:55Z</time>
      </trkpt>
      <trkpt lat="45.08493" lon="6.04554">
        <ele>1823.4</ele>
        <time>2019-10-20T11:36:00Z</time>
      </trkpt>
      <trkpt lat="45.08472" lon="6.04544">
        <ele>1821.4</ele>
        <time>2019-10-20T11:36:05Z</time>
      </trkpt>
      <trkpt lat="45.08465" lon="6.04547">
        <ele>1822.2</ele>
        <time>2019-10-20T11:36:11Z</time>
      </trkpt>
      <trkpt lat="45.08465" lon="6.0454">
        <ele>1822.6</ele>
        <time>2019-10-20T11:36:16Z</time>
      </trkpt>
      <trkpt lat="45.08465" lon="6.0452">
        <ele>1823.7</ele>
        <time>2019-10-20T11:36:21Z</time>
      </trkpt>
      <trkpt lat="45.08464" lon="6.04508">
        <ele>1824.1</ele>
        <time>2019-10-20T11:36:28Z</time>
      </trkpt>
      <trkpt lat="45.08461" lon="6.04505">
        <ele>1824.3</ele>
        <time>2019-10-20T11:36:33Z</time>
      </trkpt>
      <trkpt lat="45.08457" lon="6.04503">
        <ele>1824.5</ele>
        <time>2019-10-20T11:36:39Z</time>
      </trkpt>
      <trkpt lat="45.08454" lon="6.045">
        <ele>1824.6</ele>
        <time>2019-10-20T11:36:44Z</time>
      </trkpt>
      <trkpt lat="45.0845" lon="6.04497">
        <ele>1824.6</ele>
        <time>2019-10-20T11:36:49Z</time>
      </trkpt>
      <trkpt lat="45.08448" lon="6.04487">
        <ele>1824.6</ele>
        <time>2019-10-20T11:36:54Z</time>
      </trkpt>
      <trkpt lat="45.08446" lon="6.04473">
        <ele>1824.3</ele>
        <time>2019-10-20T11:36:59Z</time>
      </trkpt>
      <trkpt lat="45.08445" lon="6.04462">
        <ele>1824</ele>
        <time>2019-10-20T11:37:04Z</time>
      </trkpt>
      <trkpt lat="45.08441" lon="6.04453">
        <ele>1824.1</ele>
        <time>2019-10-20T11:37:09Z</time>
      </trkpt>
      <trkpt lat="45.08444" lon="6.04445">
        <ele>1824.2</ele>
        <time>2019-10-20T11:37:14Z</time>
      </trkpt>
      <trkpt lat="45.08443" lon="6.04434">
        <ele>1824.3</ele>
        <time>2019-10-20T11:37:19Z</time>
      </trkpt>
      <trkpt lat="45.08441" lon="6.04426">
        <ele>1824.4</ele>
        <time>2019-10-20T11:37:24Z</time>
      </trkpt>
      <trkpt lat="45.08439" lon="6.04429">
        <ele>1824.4</ele>
        <time>2019-10-20T11:37:29Z</time>
      </trkpt>
      <trkpt lat="45.08434" lon="6.04414">
        <ele>1823.9</ele>
        <time>2019-10-20T11:37:34Z</time>
      </trkpt>
      <trkpt lat="45.0843" lon="6.04405">
        <ele>1823.1</ele>
        <time>2019-10-20T11:37:39Z</time>
      </trkpt>
      <trkpt lat="45.08428" lon="6.04398">
        <ele>1822.4</ele>
        <time>2019-10-20T11:37:44Z</time>
      </trkpt>
      <trkpt lat="45.08426" lon="6.04387">
        <ele>1821.2</ele>
        <time>2019-10-20T11:37:49Z</time>
      </trkpt>
      <trkpt lat="45.08424" lon="6.04378">
        <ele>1820</ele>
        <time>2019-10-20T11:37:54Z</time>
      </trkpt>
      <trkpt lat="45.08421" lon="6.04369">
        <ele>1818.9</ele>
        <time>2019-10-20T11:37:59Z</time>
      </trkpt>
      <trkpt lat="45.0842" lon="6.0436">
        <ele>1818</ele>
        <time>2019-10-20T11:38:04Z</time>
      </trkpt>
      <trkpt lat="45.08426" lon="6.04354">
        <ele>1817.2</ele>
        <time>2019-10-20T11:38:09Z</time>
      </trkpt>
      <trkpt lat="45.08433" lon="6.04346">
        <ele>1816.4</ele>
        <time>2019-10-20T11:38:14Z</time>
      </trkpt>
      <trkpt lat="45.0844" lon="6.04339">
        <ele>1815.5</ele>
        <time>2019-10-20T11:38:19Z</time>
      </trkpt>
      <trkpt lat="45.08447" lon="6.04327">
        <ele>1814.3</ele>
        <time>2019-10-20T11:38:24Z</time>
      </trkpt>
      <trkpt lat="45.08457" lon="6.04315">
        <ele>1812.3</ele>
        <time>2019-10-20T11:38:30Z</time>
      </trkpt>
      <trkpt lat="45.08472" lon="6.04311">
        <ele>1809.6</ele>
        <time>2019-10-20T11:38:35Z</time>
      </trkpt>
      <trkpt lat="45.08491" lon="6.04303">
        <ele>1805.7</ele>
        <time>2019-10-20T11:38:40Z</time>
      </trkpt>
      <trkpt lat="45.0851" lon="6.04299">
        <ele>1801.9</ele>
        <time>2019-10-20T11:38:45Z</time>
      </trkpt>
      <trkpt lat="45.08589" lon="6.04282">
        <ele>1795.3</ele>
        <time>2019-10-20T11:38:50Z</time>
      </trkpt>
      <trkpt lat="45.08609" lon="6.04287">
        <ele>1795.8</ele>
        <time>2019-10-20T11:38:55Z</time>
      </trkpt>
      <trkpt lat="45.08626" lon="6.04291">
        <ele>1796.1</ele>
        <time>2019-10-20T11:39:02Z</time>
      </trkpt>
      <trkpt lat="45.08653" lon="6.04299">
        <ele>1796</ele>
        <time>2019-10-20T11:39:10Z</time>
      </trkpt>
      <trkpt lat="45.0868" lon="6.04312">
        <ele>1797.6</ele>
        <time>2019-10-20T11:39:15Z</time>
      </trkpt>
      <trkpt lat="45.08689" lon="6.04318">
        <ele>1798.1</ele>
        <time>2019-10-20T11:39:20Z</time>
      </trkpt>
      <trkpt lat="45.08692" lon="6.04316">
        <ele>1798.2</ele>
        <time>2019-10-20T11:39:54Z</time>
      </trkpt>
      <trkpt lat="45.08694" lon="6.04316">
        <ele>1798.3</ele>
        <time>2019-10-20T11:40:08Z</time>
      </trkpt>
      <trkpt lat="45.08712" lon="6.04317">
        <ele>1798.8</ele>
        <time>2019-10-20T11:40:13Z</time>
      </trkpt>
      <trkpt lat="45.08734" lon="6.04325">
        <ele>1799.3</ele>
        <time>2019-10-20T11:40:18Z</time>
      </trkpt>
      <trkpt lat="45.0876" lon="6.04327">
        <ele>1799.6</ele>
        <time>2019-10-20T11:40:23Z</time>
      </trkpt>
      <trkpt lat="45.08777" lon="6.04326">
        <ele>1799.7</ele>
        <time>2019-10-20T11:40:28Z</time>
      </trkpt>
      <trkpt lat="45.088" lon="6.04322">
        <ele>1799.7</ele>
        <time>2019-10-20T11:40:33Z</time>
      </trkpt>
      <trkpt lat="45.08827" lon="6.04323">
        <ele>1799.5</ele>
        <time>2019-10-20T11:40:38Z</time>
      </trkpt>
      <trkpt lat="45.08849" lon="6.04321">
        <ele>1799.2</ele>
        <time>2019-10-20T11:40:43Z</time>
      </trkpt>
      <trkpt lat="45.08895" lon="6.04324">
        <ele>1796.7</ele>
        <time>2019-10-20T11:40:49Z</time>
      </trkpt>
      <trkpt lat="45.08913" lon="6.04321">
        <ele>1795.3</ele>
        <time>2019-10-20T11:40:55Z</time>
      </trkpt>
      <trkpt lat="45.08946" lon="6.04337">
        <ele>1790.4</ele>
        <time>2019-10-20T11:41:00Z</time>
      </trkpt>
      <trkpt lat="45.08987" lon="6.04342">
        <ele>1784.8</ele>
        <time>2019-10-20T11:41:05Z</time>
      </trkpt>
      <trkpt lat="45.09024" lon="6.04338">
        <ele>1778.6</ele>
        <time>2019-10-20T11:41:10Z</time>
      </trkpt>
      <trkpt lat="45.0905" lon="6.04341">
        <ele>1773.5</ele>
        <time>2019-10-20T11:41:15Z</time>
      </trkpt>
      <trkpt lat="45.09086" lon="6.04348">
        <ele>1762.8</ele>
        <time>2019-10-20T11:41:20Z</time>
      </trkpt>
      <trkpt lat="45.09088" lon="6.04346">
        <ele>1761.9</ele>
        <time>2019-10-20T11:41:27Z</time>
      </trkpt>
      <trkpt lat="45.09107" lon="6.04339">
        <ele>1756.4</ele>
        <time>2019-10-20T11:41:32Z</time>
      </trkpt>
      <trkpt lat="45.0911" lon="6.04333">
        <ele>1754.8</ele>
        <time>2019-10-20T11:41:45Z</time>
      </trkpt>
      <trkpt lat="45.09116" lon="6.04334">
        <ele>1753.2</ele>
        <time>2019-10-20T11:41:50Z</time>
      </trkpt>
      <trkpt lat="45.09121" lon="6.04334">
        <ele>1751.7</ele>
        <time>2019-10-20T11:42:02Z</time>
      </trkpt>
      <trkpt lat="45.0914" lon="6.04335">
        <ele>1746.6</ele>
        <time>2019-10-20T11:42:12Z</time>
      </trkpt>
      <trkpt lat="45.09167" lon="6.04323">
        <ele>1739.3</ele>
        <time>2019-10-20T11:42:17Z</time>
      </trkpt>
      <trkpt lat="45.09182" lon="6.04312">
        <ele>1735.1</ele>
        <time>2019-10-20T11:42:22Z</time>
      </trkpt>
      <trkpt lat="45.09186" lon="6.04299">
        <ele>1732.7</ele>
        <time>2019-10-20T11:42:27Z</time>
      </trkpt>
      <trkpt lat="45.09189" lon="6.04297">
        <ele>1731.9</ele>
        <time>2019-10-20T11:42:32Z</time>
      </trkpt>
      <trkpt lat="45.09207" lon="6.04294">
        <ele>1727.8</ele>
        <time>2019-10-20T11:42:37Z</time>
      </trkpt>
      <trkpt lat="45.09223" lon="6.04293">
        <ele>1723.7</ele>
        <time>2019-10-20T11:42:42Z</time>
      </trkpt>
      <trkpt lat="45.09233" lon="6.0428">
        <ele>1720.6</ele>
        <time>2019-10-20T11:42:47Z</time>
      </trkpt>
      <trkpt lat="45.09241" lon="6.04267">
        <ele>1717.4</ele>
        <time>2019-10-20T11:42:52Z</time>
      </trkpt>
      <trkpt lat="45.09254" lon="6.04256">
        <ele>1712.7</ele>
        <time>2019-10-20T11:42:57Z</time>
      </trkpt>
      <trkpt lat="45.09255" lon="6.04241">
        <ele>1709.5</ele>
        <time>2019-10-20T11:43:02Z</time>
      </trkpt>
      <trkpt lat="45.09275" lon="6.04237">
        <ele>1704.6</ele>
        <time>2019-10-20T11:43:07Z</time>
      </trkpt>
      <trkpt lat="45.09305" lon="6.04231">
        <ele>1698.7</ele>
        <time>2019-10-20T11:43:12Z</time>
      </trkpt>
      <trkpt lat="45.0933" lon="6.04223">
        <ele>1692.8</ele>
        <time>2019-10-20T11:43:17Z</time>
      </trkpt>
      <trkpt lat="45.09331" lon="6.04221">
        <ele>1692.3</ele>
        <time>2019-10-20T11:43:23Z</time>
      </trkpt>
      <trkpt lat="45.09355" lon="6.04216">
        <ele>1686.7</ele>
        <time>2019-10-20T11:43:28Z</time>
      </trkpt>
      <trkpt lat="45.09373" lon="6.04205">
        <ele>1682.4</ele>
        <time>2019-10-20T11:43:33Z</time>
      </trkpt>
      <trkpt lat="45.09406" lon="6.04201">
        <ele>1675.8</ele>
        <time>2019-10-20T11:43:38Z</time>
      </trkpt>
      <trkpt lat="45.09419" lon="6.04195">
        <ele>1673.4</ele>
        <time>2019-10-20T11:43:43Z</time>
      </trkpt>
      <trkpt lat="45.09443" lon="6.0419">
        <ele>1668.8</ele>
        <time>2019-10-20T11:43:48Z</time>
      </trkpt>
      <trkpt lat="45.09466" lon="6.04182">
        <ele>1664.1</ele>
        <time>2019-10-20T11:43:53Z</time>
      </trkpt>
      <trkpt lat="45.09487" lon="6.04175">
        <ele>1660.2</ele>
        <time>2019-10-20T11:43:58Z</time>
      </trkpt>
      <trkpt lat="45.09501" lon="6.04169">
        <ele>1657.3</ele>
        <time>2019-10-20T11:44:03Z</time>
      </trkpt>
      <trkpt lat="45.09514" lon="6.04131">
        <ele>1652.3</ele>
        <time>2019-10-20T11:44:08Z</time>
      </trkpt>
      <trkpt lat="45.09531" lon="6.0409">
        <ele>1647.8</ele>
        <time>2019-10-20T11:44:13Z</time>
      </trkpt>
      <trkpt lat="45.09541" lon="6.04057">
        <ele>1644</ele>
        <time>2019-10-20T11:44:18Z</time>
      </trkpt>
      <trkpt lat="45.09545" lon="6.04014">
        <ele>1640.1</ele>
        <time>2019-10-20T11:44:23Z</time>
      </trkpt>
      <trkpt lat="45.09551" lon="6.03977">
        <ele>1636.5</ele>
        <time>2019-10-20T11:44:28Z</time>
      </trkpt>
      <trkpt lat="45.09543" lon="6.03961">
        <ele>1630.5</ele>
        <time>2019-10-20T11:44:33Z</time>
      </trkpt>
      <trkpt lat="45.09541" lon="6.03962">
        <ele>1630.2</ele>
        <time>2019-10-20T11:44:50Z</time>
      </trkpt>
      <trkpt lat="45.0954" lon="6.03962">
        <ele>1630.1</ele>
        <time>2019-10-20T11:44:58Z</time>
      </trkpt>
      <trkpt lat="45.09538" lon="6.03961">
        <ele>1629.9</ele>
        <time>2019-10-20T11:45:10Z</time>
      </trkpt>
      <trkpt lat="45.09528" lon="6.0396">
        <ele>1629.2</ele>
        <time>2019-10-20T11:45:15Z</time>
      </trkpt>
      <trkpt lat="45.09518" lon="6.03968">
        <ele>1628.4</ele>
        <time>2019-10-20T11:45:21Z</time>
      </trkpt>
      <trkpt lat="45.09501" lon="6.03976">
        <ele>1628</ele>
        <time>2019-10-20T11:45:26Z</time>
      </trkpt>
      <trkpt lat="45.09489" lon="6.0398">
        <ele>1628.1</ele>
        <time>2019-10-20T11:45:31Z</time>
      </trkpt>
      <trkpt lat="45.09482" lon="6.03958">
        <ele>1626.9</ele>
        <time>2019-10-20T11:45:36Z</time>
      </trkpt>
      <trkpt lat="45.09472" lon="6.03949">
        <ele>1625.3</ele>
        <time>2019-10-20T11:45:41Z</time>
      </trkpt>
      <trkpt lat="45.09451" lon="6.03964">
        <ele>1621.1</ele>
        <time>2019-10-20T11:45:46Z</time>
      </trkpt>
      <trkpt lat="45.0942" lon="6.03965">
        <ele>1616.4</ele>
        <time>2019-10-20T11:45:51Z</time>
      </trkpt>
      <trkpt lat="45.094" lon="6.0396">
        <ele>1613.8</ele>
        <time>2019-10-20T11:45:56Z</time>
      </trkpt>
      <trkpt lat="45.09381" lon="6.03968">
        <ele>1611.8</ele>
        <time>2019-10-20T11:46:01Z</time>
      </trkpt>
      <trkpt lat="45.09379" lon="6.03969">
        <ele>1611.7</ele>
        <time>2019-10-20T11:46:23Z</time>
      </trkpt>
      <trkpt lat="45.09377" lon="6.03969">
        <ele>1611.5</ele>
        <time>2019-10-20T11:46:35Z</time>
      </trkpt>
      <trkpt lat="45.09367" lon="6.03978">
        <ele>1610.7</ele>
        <time>2019-10-20T11:46:41Z</time>
      </trkpt>
      <trkpt lat="45.09367" lon="6.03975">
        <ele>1610.5</ele>
        <time>2019-10-20T11:46:49Z</time>
      </trkpt>
      <trkpt lat="45.09356" lon="6.0398">
        <ele>1609.4</ele>
        <time>2019-10-20T11:46:54Z</time>
      </trkpt>
      <trkpt lat="45.09337" lon="6.03986">
        <ele>1606.8</ele>
        <time>2019-10-20T11:46:59Z</time>
      </trkpt>
      <trkpt lat="45.09313" lon="6.03994">
        <ele>1604</ele>
        <time>2019-10-20T11:47:04Z</time>
      </trkpt>
      <trkpt lat="45.09292" lon="6.03995">
        <ele>1602</ele>
        <time>2019-10-20T11:47:09Z</time>
      </trkpt>
      <trkpt lat="45.09267" lon="6.03994">
        <ele>1599.9</ele>
        <time>2019-10-20T11:47:15Z</time>
      </trkpt>
      <trkpt lat="45.09243" lon="6.03995">
        <ele>1597.1</ele>
        <time>2019-10-20T11:47:20Z</time>
      </trkpt>
      <trkpt lat="45.09214" lon="6.03988">
        <ele>1593.5</ele>
        <time>2019-10-20T11:47:25Z</time>
      </trkpt>
      <trkpt lat="45.09177" lon="6.03999">
        <ele>1590.2</ele>
        <time>2019-10-20T11:47:30Z</time>
      </trkpt>
      <trkpt lat="45.09142" lon="6.03988">
        <ele>1587.7</ele>
        <time>2019-10-20T11:47:35Z</time>
      </trkpt>
      <trkpt lat="45.09109" lon="6.03977">
        <ele>1584.6</ele>
        <time>2019-10-20T11:47:40Z</time>
      </trkpt>
      <trkpt lat="45.0908" lon="6.03971">
        <ele>1581.6</ele>
        <time>2019-10-20T11:47:45Z</time>
      </trkpt>
      <trkpt lat="45.09047" lon="6.03956">
        <ele>1578.8</ele>
        <time>2019-10-20T11:47:50Z</time>
      </trkpt>
      <trkpt lat="45.09027" lon="6.03927">
        <ele>1577.1</ele>
        <time>2019-10-20T11:47:55Z</time>
      </trkpt>
      <trkpt lat="45.09023" lon="6.03917">
        <ele>1576.7</ele>
        <time>2019-10-20T11:48:13Z</time>
      </trkpt>
      <trkpt lat="45.09026" lon="6.03917">
        <ele>1576.5</ele>
        <time>2019-10-20T11:48:39Z</time>
      </trkpt>
      <trkpt lat="45.09025" lon="6.03915">
        <ele>1576.3</ele>
        <time>2019-10-20T11:48:48Z</time>
      </trkpt>
      <trkpt lat="45.09024" lon="6.0392">
        <ele>1576.1</ele>
        <time>2019-10-20T11:48:55Z</time>
      </trkpt>
      <trkpt lat="45.0902" lon="6.03921">
        <ele>1575.8</ele>
        <time>2019-10-20T11:49:00Z</time>
      </trkpt>
      <trkpt lat="45.09015" lon="6.03919">
        <ele>1575.3</ele>
        <time>2019-10-20T11:49:06Z</time>
      </trkpt>
      <trkpt lat="45.09013" lon="6.03918">
        <ele>1575.2</ele>
        <time>2019-10-20T11:49:11Z</time>
      </trkpt>
      <trkpt lat="45.09012" lon="6.03918">
        <ele>1575.1</ele>
        <time>2019-10-20T11:49:18Z</time>
      </trkpt>
      <trkpt lat="45.09006" lon="6.0392">
        <ele>1574.7</ele>
        <time>2019-10-20T11:50:07Z</time>
      </trkpt>
      <trkpt lat="45.09003" lon="6.03916">
        <ele>1574.2</ele>
        <time>2019-10-20T11:50:53Z</time>
      </trkpt>
      <trkpt lat="45.09005" lon="6.03917">
        <ele>1574</ele>
        <time>2019-10-20T11:51:26Z</time>
      </trkpt>
      <trkpt lat="45.09005" lon="6.03908">
        <ele>1573.3</ele>
        <time>2019-10-20T11:51:39Z</time>
      </trkpt>
      <trkpt lat="45.09005" lon="6.0389">
        <ele>1572</ele>
        <time>2019-10-20T11:51:44Z</time>
      </trkpt>
      <trkpt lat="45.08993" lon="6.03869">
        <ele>1569.9</ele>
        <time>2019-10-20T11:51:49Z</time>
      </trkpt>
      <trkpt lat="45.08974" lon="6.03857">
        <ele>1567.2</ele>
        <time>2019-10-20T11:51:54Z</time>
      </trkpt>
      <trkpt lat="45.08946" lon="6.03838">
        <ele>1562.7</ele>
        <time>2019-10-20T11:51:59Z</time>
      </trkpt>
      <trkpt lat="45.08914" lon="6.03829">
        <ele>1558.4</ele>
        <time>2019-10-20T11:52:04Z</time>
      </trkpt>
      <trkpt lat="45.08878" lon="6.03822">
        <ele>1554.8</ele>
        <time>2019-10-20T11:52:09Z</time>
      </trkpt>
      <trkpt lat="45.08842" lon="6.03812">
        <ele>1551.1</ele>
        <time>2019-10-20T11:52:14Z</time>
      </trkpt>
      <trkpt lat="45.08811" lon="6.0382">
        <ele>1547.4</ele>
        <time>2019-10-20T11:52:19Z</time>
      </trkpt>
      <trkpt lat="45.08788" lon="6.03829">
        <ele>1544.5</ele>
        <time>2019-10-20T11:52:24Z</time>
      </trkpt>
      <trkpt lat="45.08768" lon="6.03834">
        <ele>1543.5</ele>
        <time>2019-10-20T11:52:29Z</time>
      </trkpt>
      <trkpt lat="45.0875" lon="6.0384">
        <ele>1543.7</ele>
        <time>2019-10-20T11:52:34Z</time>
      </trkpt>
      <trkpt lat="45.0874" lon="6.03828">
        <ele>1544.3</ele>
        <time>2019-10-20T11:52:39Z</time>
      </trkpt>
      <trkpt lat="45.08727" lon="6.0383">
        <ele>1544.9</ele>
        <time>2019-10-20T11:52:44Z</time>
      </trkpt>
      <trkpt lat="45.08716" lon="6.0383">
        <ele>1545.4</ele>
        <time>2019-10-20T11:52:49Z</time>
      </trkpt>
      <trkpt lat="45.08719" lon="6.03833">
        <ele>1545.5</ele>
        <time>2019-10-20T11:52:55Z</time>
      </trkpt>
      <trkpt lat="45.08727" lon="6.0383">
        <ele>1546</ele>
        <time>2019-10-20T11:53:00Z</time>
      </trkpt>
      <trkpt lat="45.08731" lon="6.03826">
        <ele>1546.4</ele>
        <time>2019-10-20T11:53:09Z</time>
      </trkpt>
      <trkpt lat="45.08731" lon="6.03827">
        <ele>1546.5</ele>
        <time>2019-10-20T11:53:17Z</time>
      </trkpt>
      <trkpt lat="45.08731" lon="6.0383">
        <ele>1546.7</ele>
        <time>2019-10-20T11:53:22Z</time>
      </trkpt>
      <trkpt lat="45.08733" lon="6.0383">
        <ele>1546.8</ele>
        <time>2019-10-20T11:54:42Z</time>
      </trkpt>
      <trkpt lat="45.08736" lon="6.03828">
        <ele>1547.1</ele>
        <time>2019-10-20T11:54:54Z</time>
      </trkpt>
      <trkpt lat="45.08738" lon="6.03831">
        <ele>1547.2</ele>
        <time>2019-10-20T11:55:01Z</time>
      </trkpt>
      <trkpt lat="45.08738" lon="6.03833">
        <ele>1547.3</ele>
        <time>2019-10-20T11:55:30Z</time>
      </trkpt>
      <trkpt lat="45.08737" lon="6.03833">
        <ele>1547.5</ele>
        <time>2019-10-20T11:55:40Z</time>
      </trkpt>
      <trkpt lat="45.08736" lon="6.03833">
        <ele>1547.5</ele>
        <time>2019-10-20T11:55:47Z</time>
      </trkpt>
      <trkpt lat="45.0873" lon="6.03834">
        <ele>1548</ele>
        <time>2019-10-20T11:55:52Z</time>
      </trkpt>
      <trkpt lat="45.08731" lon="6.03836">
        <ele>1548.1</ele>
        <time>2019-10-20T11:55:57Z</time>
      </trkpt>
      <trkpt lat="45.0873" lon="6.0384">
        <ele>1548.4</ele>
        <time>2019-10-20T11:56:02Z</time>
      </trkpt>
      <trkpt lat="45.08725" lon="6.03842">
        <ele>1548.9</ele>
        <time>2019-10-20T11:56:07Z</time>
      </trkpt>
      <trkpt lat="45.08724" lon="6.03846">
        <ele>1549.2</ele>
        <time>2019-10-20T11:56:12Z</time>
      </trkpt>
      <trkpt lat="45.0872" lon="6.03847">
        <ele>1549.7</ele>
        <time>2019-10-20T11:56:22Z</time>
      </trkpt>
      <trkpt lat="45.08722" lon="6.03846">
        <ele>1549.9</ele>
        <time>2019-10-20T11:56:27Z</time>
      </trkpt>
      <trkpt lat="45.08723" lon="6.03839">
        <ele>1550.4</ele>
        <time>2019-10-20T11:56:32Z</time>
      </trkpt>
      <trkpt lat="45.08723" lon="6.03833">
        <ele>1550.8</ele>
        <time>2019-10-20T11:56:37Z</time>
      </trkpt>
      <trkpt lat="45.08725" lon="6.03829">
        <ele>1551.1</ele>
        <time>2019-10-20T11:56:42Z</time>
      </trkpt>
      <trkpt lat="45.08726" lon="6.03824">
        <ele>1551.3</ele>
        <time>2019-10-20T11:56:47Z</time>
      </trkpt>
      <trkpt lat="45.08726" lon="6.03819">
        <ele>1551.5</ele>
        <time>2019-10-20T11:56:52Z</time>
      </trkpt>
      <trkpt lat="45.08722" lon="6.03818">
        <ele>1551.8</ele>
        <time>2019-10-20T11:56:58Z</time>
      </trkpt>
      <trkpt lat="45.08721" lon="6.03815">
        <ele>1551.8</ele>
        <time>2019-10-20T11:57:03Z</time>
      </trkpt>
      <trkpt lat="45.0872" lon="6.03813">
        <ele>1551.9</ele>
        <time>2019-10-20T11:57:08Z</time>
      </trkpt>
      <trkpt lat="45.08718" lon="6.03812">
        <ele>1552</ele>
        <time>2019-10-20T11:57:13Z</time>
      </trkpt>
      <trkpt lat="45.08716" lon="6.0381">
        <ele>1552.1</ele>
        <time>2019-10-20T11:57:19Z</time>
      </trkpt>
      <trkpt lat="45.08715" lon="6.03808">
        <ele>1552.2</ele>
        <time>2019-10-20T11:57:24Z</time>
      </trkpt>
      <trkpt lat="45.08713" lon="6.03802">
        <ele>1552.2</ele>
        <time>2019-10-20T11:57:29Z</time>
      </trkpt>
      <trkpt lat="45.08711" lon="6.038">
        <ele>1552.3</ele>
        <time>2019-10-20T11:57:34Z</time>
      </trkpt>
      <trkpt lat="45.08708" lon="6.03798">
        <ele>1552.3</ele>
        <time>2019-10-20T11:57:39Z</time>
      </trkpt>
      <trkpt lat="45.08713" lon="6.03798">
        <ele>1552.2</ele>
        <time>2019-10-20T11:57:45Z</time>
      </trkpt>
      <trkpt lat="45.08713" lon="6.03796">
        <ele>1552.2</ele>
        <time>2019-10-20T11:57:52Z</time>
      </trkpt>
      <trkpt lat="45.08712" lon="6.03794">
        <ele>1552.2</ele>
        <time>2019-10-20T11:57:57Z</time>
      </trkpt>
      <trkpt lat="45.0871" lon="6.03796">
        <ele>1552.1</ele>
        <time>2019-10-20T11:58:14Z</time>
      </trkpt>
      <trkpt lat="45.08709" lon="6.03799">
        <ele>1552.1</ele>
        <time>2019-10-20T11:58:20Z</time>
      </trkpt>
      <trkpt lat="45.08713" lon="6.03804">
        <ele>1551.8</ele>
        <time>2019-10-20T11:58:26Z</time>
      </trkpt>
      <trkpt lat="45.08717" lon="6.03806">
        <ele>1551.5</ele>
        <time>2019-10-20T11:58:31Z</time>
      </trkpt>
      <trkpt lat="45.08721" lon="6.03805">
        <ele>1551.2</ele>
        <time>2019-10-20T11:58:36Z</time>
      </trkpt>
      <trkpt lat="45.08722" lon="6.03799">
        <ele>1550.9</ele>
        <time>2019-10-20T11:58:41Z</time>
      </trkpt>
      <trkpt lat="45.0872" lon="6.03797">
        <ele>1550.7</ele>
        <time>2019-10-20T11:58:54Z</time>
      </trkpt>
      <trkpt lat="45.08723" lon="6.03803">
        <ele>1550.3</ele>
        <time>2019-10-20T11:58:59Z</time>
      </trkpt>
      <trkpt lat="45.08726" lon="6.03808">
        <ele>1550</ele>
        <time>2019-10-20T11:59:04Z</time>
      </trkpt>
      <trkpt lat="45.08728" lon="6.03814">
        <ele>1549.6</ele>
        <time>2019-10-20T11:59:09Z</time>
      </trkpt>
      <trkpt lat="45.08729" lon="6.0382">
        <ele>1549.3</ele>
        <time>2019-10-20T11:59:14Z</time>
      </trkpt>
      <trkpt lat="45.08732" lon="6.03821">
        <ele>1549</ele>
        <time>2019-10-20T11:59:19Z</time>
      </trkpt>
      <trkpt lat="45.08736" lon="6.03823">
        <ele>1548.5</ele>
        <time>2019-10-20T11:59:28Z</time>
      </trkpt>
      <trkpt lat="45.08737" lon="6.03827">
        <ele>1548.2</ele>
        <time>2019-10-20T11:59:34Z</time>
      </trkpt>
      <trkpt lat="45.08733" lon="6.03827">
        <ele>1547.9</ele>
        <time>2019-10-20T11:59:39Z</time>
      </trkpt>
      <trkpt lat="45.08731" lon="6.03824">
        <ele>1547.6</ele>
        <time>2019-10-20T11:59:44Z</time>
      </trkpt>
      <trkpt lat="45.08718" lon="6.0382">
        <ele>1546.2</ele>
        <time>2019-10-20T11:59:49Z</time>
      </trkpt>
      <trkpt lat="45.08704" lon="6.03817">
        <ele>1544.8</ele>
        <time>2019-10-20T11:59:54Z</time>
      </trkpt>
      <trkpt lat="45.08685" lon="6.03799">
        <ele>1542.9</ele>
        <time>2019-10-20T11:59:59Z</time>
      </trkpt>
      <trkpt lat="45.08658" lon="6.03795">
        <ele>1540.4</ele>
        <time>2019-10-20T12:00:04Z</time>
      </trkpt>
      <trkpt lat="45.08628" lon="6.03787">
        <ele>1537</ele>
        <time>2019-10-20T12:00:09Z</time>
      </trkpt>
      <trkpt lat="45.08597" lon="6.03785">
        <ele>1532.8</ele>
        <time>2019-10-20T12:00:14Z</time>
      </trkpt>
      <trkpt lat="45.08562" lon="6.0378">
        <ele>1527.5</ele>
        <time>2019-10-20T12:00:19Z</time>
      </trkpt>
      <trkpt lat="45.08541" lon="6.0378">
        <ele>1524.2</ele>
        <time>2019-10-20T12:00:24Z</time>
      </trkpt>
      <trkpt lat="45.08528" lon="6.03775">
        <ele>1522.1</ele>
        <time>2019-10-20T12:00:29Z</time>
      </trkpt>
      <trkpt lat="45.08506" lon="6.03757">
        <ele>1518.3</ele>
        <time>2019-10-20T12:00:34Z</time>
      </trkpt>
      <trkpt lat="45.0847" lon="6.0374">
        <ele>1512.9</ele>
        <time>2019-10-20T12:00:39Z</time>
      </trkpt>
      <trkpt lat="45.08466" lon="6.03713">
        <ele>1510.1</ele>
        <time>2019-10-20T12:00:44Z</time>
      </trkpt>
      <trkpt lat="45.08484" lon="6.0369">
        <ele>1507</ele>
        <time>2019-10-20T12:00:49Z</time>
      </trkpt>
      <trkpt lat="45.085" lon="6.03653">
        <ele>1502.9</ele>
        <time>2019-10-20T12:00:54Z</time>
      </trkpt>
      <trkpt lat="45.08518" lon="6.03638">
        <ele>1499.6</ele>
        <time>2019-10-20T12:00:59Z</time>
      </trkpt>
      <trkpt lat="45.08542" lon="6.03628">
        <ele>1496</ele>
        <time>2019-10-20T12:01:04Z</time>
      </trkpt>
      <trkpt lat="45.08559" lon="6.03614">
        <ele>1493.4</ele>
        <time>2019-10-20T12:01:09Z</time>
      </trkpt>
      <trkpt lat="45.08554" lon="6.03608">
        <ele>1492.5</ele>
        <time>2019-10-20T12:01:14Z</time>
      </trkpt>
      <trkpt lat="45.08546" lon="6.03616">
        <ele>1492.3</ele>
        <time>2019-10-20T12:01:19Z</time>
      </trkpt>
      <trkpt lat="45.0853" lon="6.0362">
        <ele>1492.9</ele>
        <time>2019-10-20T12:01:25Z</time>
      </trkpt>
      <trkpt lat="45.08512" lon="6.03624">
        <ele>1493.3</ele>
        <time>2019-10-20T12:01:30Z</time>
      </trkpt>
      <trkpt lat="45.08495" lon="6.03628">
        <ele>1493.9</ele>
        <time>2019-10-20T12:01:35Z</time>
      </trkpt>
      <trkpt lat="45.08482" lon="6.03638">
        <ele>1494.3</ele>
        <time>2019-10-20T12:01:40Z</time>
      </trkpt>
      <trkpt lat="45.08475" lon="6.03654">
        <ele>1494.5</ele>
        <time>2019-10-20T12:01:47Z</time>
      </trkpt>
      <trkpt lat="45.08458" lon="6.03683">
        <ele>1495.1</ele>
        <time>2019-10-20T12:01:52Z</time>
      </trkpt>
      <trkpt lat="45.08454" lon="6.03706">
        <ele>1495.3</ele>
        <time>2019-10-20T12:01:57Z</time>
      </trkpt>
      <trkpt lat="45.08445" lon="6.03725">
        <ele>1495.5</ele>
        <time>2019-10-20T12:02:02Z</time>
      </trkpt>
      <trkpt lat="45.08434" lon="6.03747">
        <ele>1495.7</ele>
        <time>2019-10-20T12:02:07Z</time>
      </trkpt>
      <trkpt lat="45.08428" lon="6.03779">
        <ele>1496</ele>
        <time>2019-10-20T12:02:12Z</time>
      </trkpt>
      <trkpt lat="45.08425" lon="6.0381">
        <ele>1496.3</ele>
        <time>2019-10-20T12:02:17Z</time>
      </trkpt>
      <trkpt lat="45.08423" lon="6.03823">
        <ele>1496.4</ele>
        <time>2019-10-20T12:02:24Z</time>
      </trkpt>
      <trkpt lat="45.08423" lon="6.03825">
        <ele>1496.4</ele>
        <time>2019-10-20T12:02:30Z</time>
      </trkpt>
      <trkpt lat="45.08423" lon="6.03843">
        <ele>1496.6</ele>
        <time>2019-10-20T12:02:35Z</time>
      </trkpt>
      <trkpt lat="45.0841" lon="6.0387">
        <ele>1497</ele>
        <time>2019-10-20T12:02:40Z</time>
      </trkpt>
      <trkpt lat="45.08392" lon="6.03901">
        <ele>1497.5</ele>
        <time>2019-10-20T12:02:45Z</time>
      </trkpt>
      <trkpt lat="45.0839" lon="6.03936">
        <ele>1498.2</ele>
        <time>2019-10-20T12:02:50Z</time>
      </trkpt>
      <trkpt lat="45.08384" lon="6.03969">
        <ele>1498.8</ele>
        <time>2019-10-20T12:02:55Z</time>
      </trkpt>
      <trkpt lat="45.08355" lon="6.03972">
        <ele>1499.5</ele>
        <time>2019-10-20T12:03:00Z</time>
      </trkpt>
      <trkpt lat="45.08336" lon="6.03998">
        <ele>1500.4</ele>
        <time>2019-10-20T12:03:05Z</time>
      </trkpt>
      <trkpt lat="45.08318" lon="6.04027">
        <ele>1501</ele>
        <time>2019-10-20T12:03:10Z</time>
      </trkpt>
      <trkpt lat="45.08284" lon="6.04032">
        <ele>1501.5</ele>
        <time>2019-10-20T12:03:15Z</time>
      </trkpt>
      <trkpt lat="45.0826" lon="6.04053">
        <ele>1502</ele>
        <time>2019-10-20T12:03:20Z</time>
      </trkpt>
      <trkpt lat="45.08237" lon="6.04074">
        <ele>1502.4</ele>
        <time>2019-10-20T12:03:25Z</time>
      </trkpt>
      <trkpt lat="45.0821" lon="6.04081">
        <ele>1502.9</ele>
        <time>2019-10-20T12:03:30Z</time>
      </trkpt>
      <trkpt lat="45.08182" lon="6.0409">
        <ele>1503.4</ele>
        <time>2019-10-20T12:03:39Z</time>
      </trkpt>
      <trkpt lat="45.08143" lon="6.04098">
        <ele>1503.7</ele>
        <time>2019-10-20T12:03:44Z</time>
      </trkpt>
      <trkpt lat="45.08118" lon="6.04105">
        <ele>1503.7</ele>
        <time>2019-10-20T12:03:49Z</time>
      </trkpt>
      <trkpt lat="45.08098" lon="6.04118">
        <ele>1503.7</ele>
        <time>2019-10-20T12:03:54Z</time>
      </trkpt>
      <trkpt lat="45.08077" lon="6.04127">
        <ele>1503.7</ele>
        <time>2019-10-20T12:03:59Z</time>
      </trkpt>
      <trkpt lat="45.08051" lon="6.04134">
        <ele>1503.4</ele>
        <time>2019-10-20T12:04:04Z</time>
      </trkpt>
      <trkpt lat="45.08025" lon="6.04151">
        <ele>1502.9</ele>
        <time>2019-10-20T12:04:09Z</time>
      </trkpt>
      <trkpt lat="45.0802" lon="6.04163">
        <ele>1502.8</ele>
        <time>2019-10-20T12:04:16Z</time>
      </trkpt>
      <trkpt lat="45.08019" lon="6.0417">
        <ele>1502.8</ele>
        <time>2019-10-20T12:04:26Z</time>
      </trkpt>
      <trkpt lat="45.08023" lon="6.04175">
        <ele>1505.8</ele>
        <time>2019-10-20T12:04:33Z</time>
      </trkpt>
      <trkpt lat="45.08021" lon="6.04168">
        <ele>1506.8</ele>
        <time>2019-10-20T12:04:44Z</time>
      </trkpt>
      <trkpt lat="45.08025" lon="6.0417">
        <ele>1507.7</ele>
        <time>2019-10-20T12:04:49Z</time>
      </trkpt>
      <trkpt lat="45.08025" lon="6.04168">
        <ele>1508</ele>
        <time>2019-10-20T12:04:57Z</time>
      </trkpt>
      <trkpt lat="45.08026" lon="6.04167">
        <ele>1508.2</ele>
        <time>2019-10-20T12:05:04Z</time>
      </trkpt>
      <trkpt lat="45.08026" lon="6.04163">
        <ele>1508.8</ele>
        <time>2019-10-20T12:05:16Z</time>
      </trkpt>
      <trkpt lat="45.08028" lon="6.04162">
        <ele>1509.1</ele>
        <time>2019-10-20T12:05:24Z</time>
      </trkpt>
      <trkpt lat="45.08024" lon="6.04166">
        <ele>1510</ele>
        <time>2019-10-20T12:05:29Z</time>
      </trkpt>
      <trkpt lat="45.08025" lon="6.04166">
        <ele>1510.2</ele>
        <time>2019-10-20T12:05:34Z</time>
      </trkpt>
      <trkpt lat="45.08023" lon="6.04166">
        <ele>1510.6</ele>
        <time>2019-10-20T12:05:53Z</time>
      </trkpt>
      <trkpt lat="45.08025" lon="6.04165">
        <ele>1511</ele>
        <time>2019-10-20T12:05:58Z</time>
      </trkpt>
      <trkpt lat="45.08023" lon="6.04168">
        <ele>1511.5</ele>
        <time>2019-10-20T12:06:04Z</time>
      </trkpt>
      <trkpt lat="45.08027" lon="6.04179">
        <ele>1513</ele>
        <time>2019-10-20T12:06:09Z</time>
      </trkpt>
      <trkpt lat="45.08029" lon="6.04202">
        <ele>1515.7</ele>
        <time>2019-10-20T12:06:14Z</time>
      </trkpt>
      <trkpt lat="45.08038" lon="6.0424">
        <ele>1527.6</ele>
        <time>2019-10-20T12:06:19Z</time>
      </trkpt>
      <trkpt lat="45.08054" lon="6.04279">
        <ele>1534.2</ele>
        <time>2019-10-20T12:06:24Z</time>
      </trkpt>
      <trkpt lat="45.08073" lon="6.04298">
        <ele>1538.9</ele>
        <time>2019-10-20T12:06:29Z</time>
      </trkpt>
      <trkpt lat="45.08075" lon="6.04307">
        <ele>1540.3</ele>
        <time>2019-10-20T12:06:39Z</time>
      </trkpt>
      <trkpt lat="45.08071" lon="6.04322">
        <ele>1539.9</ele>
        <time>2019-10-20T12:06:44Z</time>
      </trkpt>
      <trkpt lat="45.08073" lon="6.04335">
        <ele>1539.6</ele>
        <time>2019-10-20T12:06:49Z</time>
      </trkpt>
      <trkpt lat="45.08081" lon="6.04346">
        <ele>1539.2</ele>
        <time>2019-10-20T12:06:54Z</time>
      </trkpt>
      <trkpt lat="45.08088" lon="6.04355">
        <ele>1538.9</ele>
        <time>2019-10-20T12:07:01Z</time>
      </trkpt>
      <trkpt lat="45.08098" lon="6.04364">
        <ele>1538.5</ele>
        <time>2019-10-20T12:07:06Z</time>
      </trkpt>
      <trkpt lat="45.08095" lon="6.04379">
        <ele>1538.2</ele>
        <time>2019-10-20T12:07:11Z</time>
      </trkpt>
      <trkpt lat="45.08092" lon="6.04389">
        <ele>1537.9</ele>
        <time>2019-10-20T12:07:16Z</time>
      </trkpt>
      <trkpt lat="45.08092" lon="6.04391">
        <ele>1537.9</ele>
        <time>2019-10-20T12:07:24Z</time>
      </trkpt>
      <trkpt lat="45.08086" lon="6.04408">
        <ele>1537.5</ele>
        <time>2019-10-20T12:07:29Z</time>
      </trkpt>
      <trkpt lat="45.08086" lon="6.0443">
        <ele>1537</ele>
        <time>2019-10-20T12:07:34Z</time>
      </trkpt>
      <trkpt lat="45.08095" lon="6.04437">
        <ele>1536.6</ele>
        <time>2019-10-20T12:07:40Z</time>
      </trkpt>
      <trkpt lat="45.08098" lon="6.04441">
        <ele>1536.5</ele>
        <time>2019-10-20T12:07:45Z</time>
      </trkpt>
      <trkpt lat="45.0811" lon="6.04455">
        <ele>1536</ele>
        <time>2019-10-20T12:07:50Z</time>
      </trkpt>
      <trkpt lat="45.08112" lon="6.04496">
        <ele>1534.6</ele>
        <time>2019-10-20T12:07:55Z</time>
      </trkpt>
      <trkpt lat="45.08114" lon="6.0455">
        <ele>1533</ele>
        <time>2019-10-20T12:08:01Z</time>
      </trkpt>
      <trkpt lat="45.0809" lon="6.04573">
        <ele>1532.1</ele>
        <time>2019-10-20T12:08:06Z</time>
      </trkpt>
      <trkpt lat="45.08075" lon="6.0459">
        <ele>1531.6</ele>
        <time>2019-10-20T12:08:11Z</time>
      </trkpt>
      <trkpt lat="45.08076" lon="6.046">
        <ele>1531.3</ele>
        <time>2019-10-20T12:08:26Z</time>
      </trkpt>
      <trkpt lat="45.08073" lon="6.04601">
        <ele>1531.3</ele>
        <time>2019-10-20T12:08:37Z</time>
      </trkpt>
      <trkpt lat="45.08077" lon="6.04602">
        <ele>1531.2</ele>
        <time>2019-10-20T12:08:42Z</time>
      </trkpt>
      <trkpt lat="45.08085" lon="6.04622">
        <ele>1530.8</ele>
        <time>2019-10-20T12:08:47Z</time>
      </trkpt>
      <trkpt lat="45.08073" lon="6.04649">
        <ele>1529.8</ele>
        <time>2019-10-20T12:08:52Z</time>
      </trkpt>
      <trkpt lat="45.08059" lon="6.0467">
        <ele>1529</ele>
        <time>2019-10-20T12:08:57Z</time>
      </trkpt>
      <trkpt lat="45.08047" lon="6.04702">
        <ele>1527.9</ele>
        <time>2019-10-20T12:09:02Z</time>
      </trkpt>
      <trkpt lat="45.0803" lon="6.0474">
        <ele>1526.1</ele>
        <time>2019-10-20T12:09:07Z</time>
      </trkpt>
      <trkpt lat="45.08025" lon="6.04759">
        <ele>1525.3</ele>
        <time>2019-10-20T12:09:12Z</time>
      </trkpt>
      <trkpt lat="45.08026" lon="6.04761">
        <ele>1525.3</ele>
        <time>2019-10-20T12:09:20Z</time>
      </trkpt>
      <trkpt lat="45.08022" lon="6.04761">
        <ele>1525.1</ele>
        <time>2019-10-20T12:09:45Z</time>
      </trkpt>
      <trkpt lat="45.08025" lon="6.04766">
        <ele>1524.8</ele>
        <time>2019-10-20T12:10:07Z</time>
      </trkpt>
      <trkpt lat="45.08028" lon="6.04769">
        <ele>1524.6</ele>
        <time>2019-10-20T12:10:12Z</time>
      </trkpt>
      <trkpt lat="45.08034" lon="6.04773">
        <ele>1524.2</ele>
        <time>2019-10-20T12:10:17Z</time>
      </trkpt>
      <trkpt lat="45.08046" lon="6.04795">
        <ele>1522.9</ele>
        <time>2019-10-20T12:10:22Z</time>
      </trkpt>
      <trkpt lat="45.08055" lon="6.04818">
        <ele>1521.6</ele>
        <time>2019-10-20T12:10:27Z</time>
      </trkpt>
      <trkpt lat="45.08063" lon="6.04834">
        <ele>1518.8</ele>
        <time>2019-10-20T12:10:40Z</time>
      </trkpt>
      <trkpt lat="45.08059" lon="6.04834">
        <ele>1517.8</ele>
        <time>2019-10-20T12:10:56Z</time>
      </trkpt>
      <trkpt lat="45.08053" lon="6.04814">
        <ele>1515.4</ele>
        <time>2019-10-20T12:11:01Z</time>
      </trkpt>
      <trkpt lat="45.08043" lon="6.04786">
        <ele>1512.6</ele>
        <time>2019-10-20T12:11:06Z</time>
      </trkpt>
      <trkpt lat="45.08029" lon="6.04766">
        <ele>1511.1</ele>
        <time>2019-10-20T12:11:11Z</time>
      </trkpt>
      <trkpt lat="45.08024" lon="6.04761">
        <ele>1510.7</ele>
        <time>2019-10-20T12:11:17Z</time>
      </trkpt>
      <trkpt lat="45.08019" lon="6.04763">
        <ele>1510.4</ele>
        <time>2019-10-20T12:11:23Z</time>
      </trkpt>
      <trkpt lat="45.08015" lon="6.04762">
        <ele>1510</ele>
        <time>2019-10-20T12:11:28Z</time>
      </trkpt>
      <trkpt lat="45.08009" lon="6.0476">
        <ele>1509.6</ele>
        <time>2019-10-20T12:11:33Z</time>
      </trkpt>
      <trkpt lat="45.0801" lon="6.04762">
        <ele>1509.5</ele>
        <time>2019-10-20T12:11:40Z</time>
      </trkpt>
      <trkpt lat="45.08011" lon="6.04773">
        <ele>1509</ele>
        <time>2019-10-20T12:11:45Z</time>
      </trkpt>
      <trkpt lat="45.08031" lon="6.04806">
        <ele>1506.9</ele>
        <time>2019-10-20T12:11:50Z</time>
      </trkpt>
      <trkpt lat="45.0804" lon="6.04831">
        <ele>1505.6</ele>
        <time>2019-10-20T12:11:55Z</time>
      </trkpt>
      <trkpt lat="45.08056" lon="6.04861">
        <ele>1502.7</ele>
        <time>2019-10-20T12:12:00Z</time>
      </trkpt>
      <trkpt lat="45.08062" lon="6.04899">
        <ele>1498.7</ele>
        <time>2019-10-20T12:12:05Z</time>
      </trkpt>
      <trkpt lat="45.08046" lon="6.04949">
        <ele>1493.7</ele>
        <time>2019-10-20T12:12:11Z</time>
      </trkpt>
      <trkpt lat="45.08027" lon="6.04977">
        <ele>1491.6</ele>
        <time>2019-10-20T12:12:16Z</time>
      </trkpt>
      <trkpt lat="45.08021" lon="6.05">
        <ele>1490.9</ele>
        <time>2019-10-20T12:12:21Z</time>
      </trkpt>
      <trkpt lat="45.0801" lon="6.05038">
        <ele>1490.5</ele>
        <time>2019-10-20T12:12:26Z</time>
      </trkpt>
      <trkpt lat="45.08002" lon="6.05074">
        <ele>1490.8</ele>
        <time>2019-10-20T12:12:31Z</time>
      </trkpt>
      <trkpt lat="45.07997" lon="6.05101">
        <ele>1491.1</ele>
        <time>2019-10-20T12:12:36Z</time>
      </trkpt>
      <trkpt lat="45.07991" lon="6.05126">
        <ele>1491.6</ele>
        <time>2019-10-20T12:12:41Z</time>
      </trkpt>
      <trkpt lat="45.0798" lon="6.05143">
        <ele>1492.4</ele>
        <time>2019-10-20T12:12:46Z</time>
      </trkpt>
      <trkpt lat="45.07981" lon="6.05174">
        <ele>1493.3</ele>
        <time>2019-10-20T12:12:51Z</time>
      </trkpt>
      <trkpt lat="45.0798" lon="6.05195">
        <ele>1494</ele>
        <time>2019-10-20T12:12:56Z</time>
      </trkpt>
      <trkpt lat="45.07973" lon="6.05229">
        <ele>1495.3</ele>
        <time>2019-10-20T12:13:01Z</time>
      </trkpt>
      <trkpt lat="45.07972" lon="6.05252">
        <ele>1490.3</ele>
        <time>2019-10-20T12:13:06Z</time>
      </trkpt>
      <trkpt lat="45.07978" lon="6.0526">
        <ele>1489</ele>
        <time>2019-10-20T12:13:11Z</time>
      </trkpt>
      <trkpt lat="45.07995" lon="6.05271">
        <ele>1487.5</ele>
        <time>2019-10-20T12:13:16Z</time>
      </trkpt>
      <trkpt lat="45.08016" lon="6.0528">
        <ele>1486.4</ele>
        <time>2019-10-20T12:13:21Z</time>
      </trkpt>
      <trkpt lat="45.08042" lon="6.05287">
        <ele>1484.5</ele>
        <time>2019-10-20T12:13:26Z</time>
      </trkpt>
      <trkpt lat="45.08076" lon="6.05292">
        <ele>1480.9</ele>
        <time>2019-10-20T12:13:31Z</time>
      </trkpt>
      <trkpt lat="45.08107" lon="6.05314">
        <ele>1476.9</ele>
        <time>2019-10-20T12:13:36Z</time>
      </trkpt>
      <trkpt lat="45.08143" lon="6.05311">
        <ele>1474.7</ele>
        <time>2019-10-20T12:13:41Z</time>
      </trkpt>
      <trkpt lat="45.08164" lon="6.05311">
        <ele>1473.2</ele>
        <time>2019-10-20T12:13:46Z</time>
      </trkpt>
      <trkpt lat="45.08168" lon="6.05311">
        <ele>1472.9</ele>
        <time>2019-10-20T12:13:51Z</time>
      </trkpt>
      <trkpt lat="45.08173" lon="6.05311">
        <ele>1472.4</ele>
        <time>2019-10-20T12:13:59Z</time>
      </trkpt>
      <trkpt lat="45.08175" lon="6.05319">
        <ele>1471.8</ele>
        <time>2019-10-20T12:14:21Z</time>
      </trkpt>
      <trkpt lat="45.08164" lon="6.05373">
        <ele>1468.7</ele>
        <time>2019-10-20T12:14:26Z</time>
      </trkpt>
      <trkpt lat="45.08167" lon="6.05391">
        <ele>1468.3</ele>
        <time>2019-10-20T12:14:31Z</time>
      </trkpt>
      <trkpt lat="45.08177" lon="6.05429">
        <ele>1466.6</ele>
        <time>2019-10-20T12:14:36Z</time>
      </trkpt>
      <trkpt lat="45.08192" lon="6.05469">
        <ele>1464.9</ele>
        <time>2019-10-20T12:14:41Z</time>
      </trkpt>
      <trkpt lat="45.08213" lon="6.05498">
        <ele>1463.3</ele>
        <time>2019-10-20T12:14:46Z</time>
      </trkpt>
      <trkpt lat="45.0824" lon="6.05533">
        <ele>1459.1</ele>
        <time>2019-10-20T12:14:51Z</time>
      </trkpt>
      <trkpt lat="45.08251" lon="6.05571">
        <ele>1456.4</ele>
        <time>2019-10-20T12:14:56Z</time>
      </trkpt>
      <trkpt lat="45.08216" lon="6.05585">
        <ele>1456.7</ele>
        <time>2019-10-20T12:15:01Z</time>
      </trkpt>
      <trkpt lat="45.08193" lon="6.056">
        <ele>1456.8</ele>
        <time>2019-10-20T12:15:06Z</time>
      </trkpt>
      <trkpt lat="45.0817" lon="6.05613">
        <ele>1457.4</ele>
        <time>2019-10-20T12:15:11Z</time>
      </trkpt>
      <trkpt lat="45.08164" lon="6.05611">
        <ele>1457.8</ele>
        <time>2019-10-20T12:15:17Z</time>
      </trkpt>
      <trkpt lat="45.08141" lon="6.05634">
        <ele>1460.6</ele>
        <time>2019-10-20T12:15:22Z</time>
      </trkpt>
      <trkpt lat="45.08137" lon="6.05646">
        <ele>1463.3</ele>
        <time>2019-10-20T12:15:27Z</time>
      </trkpt>
      <trkpt lat="45.08147" lon="6.05646">
        <ele>1465.6</ele>
        <time>2019-10-20T12:15:32Z</time>
      </trkpt>
      <trkpt lat="45.08157" lon="6.05642">
        <ele>1467.7</ele>
        <time>2019-10-20T12:15:40Z</time>
      </trkpt>
      <trkpt lat="45.08177" lon="6.05642">
        <ele>1471.1</ele>
        <time>2019-10-20T12:15:45Z</time>
      </trkpt>
      <trkpt lat="45.08189" lon="6.05638">
        <ele>1472.8</ele>
        <time>2019-10-20T12:15:50Z</time>
      </trkpt>
      <trkpt lat="45.08199" lon="6.05647">
        <ele>1474.7</ele>
        <time>2019-10-20T12:15:55Z</time>
      </trkpt>
      <trkpt lat="45.08193" lon="6.05662">
        <ele>1475.3</ele>
        <time>2019-10-20T12:16:00Z</time>
      </trkpt>
      <trkpt lat="45.0819" lon="6.05674">
        <ele>1475.5</ele>
        <time>2019-10-20T12:16:05Z</time>
      </trkpt>
      <trkpt lat="45.08187" lon="6.0569">
        <ele>1475.7</ele>
        <time>2019-10-20T12:16:10Z</time>
      </trkpt>
      <trkpt lat="45.08179" lon="6.05711">
        <ele>1475.9</ele>
        <time>2019-10-20T12:16:15Z</time>
      </trkpt>
      <trkpt lat="45.08178" lon="6.05727">
        <ele>1476.6</ele>
        <time>2019-10-20T12:16:20Z</time>
      </trkpt>
      <trkpt lat="45.08177" lon="6.05742">
        <ele>1478.6</ele>
        <time>2019-10-20T12:16:25Z</time>
      </trkpt>
      <trkpt lat="45.08174" lon="6.05777">
        <ele>1482.8</ele>
        <time>2019-10-20T12:16:30Z</time>
      </trkpt>
      <trkpt lat="45.08171" lon="6.05793">
        <ele>1485.2</ele>
        <time>2019-10-20T12:16:37Z</time>
      </trkpt>
      <trkpt lat="45.08176" lon="6.05824">
        <ele>1488.4</ele>
        <time>2019-10-20T12:16:45Z</time>
      </trkpt>
      <trkpt lat="45.08187" lon="6.05851">
        <ele>1491.4</ele>
        <time>2019-10-20T12:16:50Z</time>
      </trkpt>
      <trkpt lat="45.08195" lon="6.05866">
        <ele>1493.3</ele>
        <time>2019-10-20T12:16:55Z</time>
      </trkpt>
      <trkpt lat="45.08202" lon="6.05886">
        <ele>1494.9</ele>
        <time>2019-10-20T12:17:00Z</time>
      </trkpt>
      <trkpt lat="45.08207" lon="6.0591">
        <ele>1496.1</ele>
        <time>2019-10-20T12:17:05Z</time>
      </trkpt>
      <trkpt lat="45.08213" lon="6.05934">
        <ele>1497.7</ele>
        <time>2019-10-20T12:17:14Z</time>
      </trkpt>
      <trkpt lat="45.08216" lon="6.05963">
        <ele>1499.3</ele>
        <time>2019-10-20T12:17:19Z</time>
      </trkpt>
      <trkpt lat="45.08207" lon="6.05972">
        <ele>1499.9</ele>
        <time>2019-10-20T12:17:24Z</time>
      </trkpt>
      <trkpt lat="45.08206" lon="6.05974">
        <ele>1500</ele>
        <time>2019-10-20T12:17:29Z</time>
      </trkpt>
      <trkpt lat="45.08208" lon="6.05974">
        <ele>1500.1</ele>
        <time>2019-10-20T12:18:24Z</time>
      </trkpt>
      <trkpt lat="45.08215" lon="6.05976">
        <ele>1500.5</ele>
        <time>2019-10-20T12:18:29Z</time>
      </trkpt>
      <trkpt lat="45.08223" lon="6.05957">
        <ele>1501</ele>
        <time>2019-10-20T12:18:34Z</time>
      </trkpt>
      <trkpt lat="45.08223" lon="6.05933">
        <ele>1501.8</ele>
        <time>2019-10-20T12:18:39Z</time>
      </trkpt>
      <trkpt lat="45.08225" lon="6.05916">
        <ele>1502.2</ele>
        <time>2019-10-20T12:18:44Z</time>
      </trkpt>
      <trkpt lat="45.08228" lon="6.05897">
        <ele>1502.6</ele>
        <time>2019-10-20T12:18:49Z</time>
      </trkpt>
      <trkpt lat="45.08229" lon="6.05875">
        <ele>1502.2</ele>
        <time>2019-10-20T12:18:54Z</time>
      </trkpt>
      <trkpt lat="45.08227" lon="6.0585">
        <ele>1501.1</ele>
        <time>2019-10-20T12:18:59Z</time>
      </trkpt>
      <trkpt lat="45.08225" lon="6.05829">
        <ele>1499.8</ele>
        <time>2019-10-20T12:19:04Z</time>
      </trkpt>
      <trkpt lat="45.08228" lon="6.05804">
        <ele>1498.8</ele>
        <time>2019-10-20T12:19:09Z</time>
      </trkpt>
      <trkpt lat="45.08233" lon="6.05792">
        <ele>1498.7</ele>
        <time>2019-10-20T12:19:14Z</time>
      </trkpt>
      <trkpt lat="45.08243" lon="6.05796">
        <ele>1500.5</ele>
        <time>2019-10-20T12:19:19Z</time>
      </trkpt>
      <trkpt lat="45.08247" lon="6.05804">
        <ele>1502.1</ele>
        <time>2019-10-20T12:19:24Z</time>
      </trkpt>
      <trkpt lat="45.08253" lon="6.05809">
        <ele>1503.8</ele>
        <time>2019-10-20T12:19:35Z</time>
      </trkpt>
      <trkpt lat="45.08264" lon="6.0582">
        <ele>1507</ele>
        <time>2019-10-20T12:19:40Z</time>
      </trkpt>
      <trkpt lat="45.0827" lon="6.05833">
        <ele>1509.3</ele>
        <time>2019-10-20T12:19:45Z</time>
      </trkpt>
      <trkpt lat="45.0828" lon="6.05848">
        <ele>1512.6</ele>
        <time>2019-10-20T12:19:50Z</time>
      </trkpt>
      <trkpt lat="45.08281" lon="6.05857">
        <ele>1514.3</ele>
        <time>2019-10-20T12:19:55Z</time>
      </trkpt>
      <trkpt lat="45.0829" lon="6.05868">
        <ele>1517.1</ele>
        <time>2019-10-20T12:20:00Z</time>
      </trkpt>
      <trkpt lat="45.08297" lon="6.05876">
        <ele>1519.2</ele>
        <time>2019-10-20T12:20:05Z</time>
      </trkpt>
      <trkpt lat="45.08297" lon="6.05884">
        <ele>1520.7</ele>
        <time>2019-10-20T12:20:10Z</time>
      </trkpt>
      <trkpt lat="45.08304" lon="6.05898">
        <ele>1523.6</ele>
        <time>2019-10-20T12:20:15Z</time>
      </trkpt>
      <trkpt lat="45.08312" lon="6.05904">
        <ele>1526</ele>
        <time>2019-10-20T12:20:20Z</time>
      </trkpt>
      <trkpt lat="45.08316" lon="6.05903">
        <ele>1527</ele>
        <time>2019-10-20T12:20:25Z</time>
      </trkpt>
      <trkpt lat="45.0832" lon="6.05903">
        <ele>1528.4</ele>
        <time>2019-10-20T12:20:48Z</time>
      </trkpt>
      <trkpt lat="45.08325" lon="6.05904">
        <ele>1529.4</ele>
        <time>2019-10-20T12:21:00Z</time>
      </trkpt>
      <trkpt lat="45.08328" lon="6.05908">
        <ele>1530.3</ele>
        <time>2019-10-20T12:21:06Z</time>
      </trkpt>
      <trkpt lat="45.08334" lon="6.05916">
        <ele>1532.2</ele>
        <time>2019-10-20T12:21:11Z</time>
      </trkpt>
      <trkpt lat="45.08344" lon="6.05916">
        <ele>1534.6</ele>
        <time>2019-10-20T12:21:16Z</time>
      </trkpt>
      <trkpt lat="45.0835" lon="6.05915">
        <ele>1536.1</ele>
        <time>2019-10-20T12:21:21Z</time>
      </trkpt>
      <trkpt lat="45.08356" lon="6.05923">
        <ele>1538.3</ele>
        <time>2019-10-20T12:21:26Z</time>
      </trkpt>
      <trkpt lat="45.08361" lon="6.05931">
        <ele>1540.6</ele>
        <time>2019-10-20T12:21:31Z</time>
      </trkpt>
      <trkpt lat="45.08374" lon="6.05943">
        <ele>1545.4</ele>
        <time>2019-10-20T12:21:45Z</time>
      </trkpt>
      <trkpt lat="45.08382" lon="6.05955">
        <ele>1548.7</ele>
        <time>2019-10-20T12:21:50Z</time>
      </trkpt>
      <trkpt lat="45.08387" lon="6.05966">
        <ele>1551.1</ele>
        <time>2019-10-20T12:21:55Z</time>
      </trkpt>
      <trkpt lat="45.08393" lon="6.05974">
        <ele>1553.3</ele>
        <time>2019-10-20T12:22:02Z</time>
      </trkpt>
      <trkpt lat="45.08409" lon="6.05987">
        <ele>1558.1</ele>
        <time>2019-10-20T12:22:22Z</time>
      </trkpt>
      <trkpt lat="45.08421" lon="6.06001">
        <ele>1562.1</ele>
        <time>2019-10-20T12:22:27Z</time>
      </trkpt>
      <trkpt lat="45.08428" lon="6.06008">
        <ele>1564.3</ele>
        <time>2019-10-20T12:22:32Z</time>
      </trkpt>
      <trkpt lat="45.08437" lon="6.06013">
        <ele>1566.5</ele>
        <time>2019-10-20T12:22:37Z</time>
      </trkpt>
      <trkpt lat="45.08446" lon="6.06018">
        <ele>1568.4</ele>
        <time>2019-10-20T12:22:42Z</time>
      </trkpt>
      <trkpt lat="45.08453" lon="6.06028">
        <ele>1570.5</ele>
        <time>2019-10-20T12:22:48Z</time>
      </trkpt>
      <trkpt lat="45.08464" lon="6.06026">
        <ele>1573</ele>
        <time>2019-10-20T12:22:53Z</time>
      </trkpt>
      <trkpt lat="45.08469" lon="6.06029">
        <ele>1574.2</ele>
        <time>2019-10-20T12:23:49Z</time>
      </trkpt>
      <trkpt lat="45.08481" lon="6.0603">
        <ele>1577.1</ele>
        <time>2019-10-20T12:23:54Z</time>
      </trkpt>
      <trkpt lat="45.08492" lon="6.06036">
        <ele>1580.5</ele>
        <time>2019-10-20T12:24:00Z</time>
      </trkpt>
      <trkpt lat="45.08505" lon="6.06042">
        <ele>1583.6</ele>
        <time>2019-10-20T12:24:07Z</time>
      </trkpt>
      <trkpt lat="45.08519" lon="6.06035">
        <ele>1585.4</ele>
        <time>2019-10-20T12:24:12Z</time>
      </trkpt>
      <trkpt lat="45.08524" lon="6.06034">
        <ele>1585.9</ele>
        <time>2019-10-20T12:24:18Z</time>
      </trkpt>
      <trkpt lat="45.08535" lon="6.0603">
        <ele>1588</ele>
        <time>2019-10-20T12:24:33Z</time>
      </trkpt>
      <trkpt lat="45.08554" lon="6.06026">
        <ele>1591.6</ele>
        <time>2019-10-20T12:24:38Z</time>
      </trkpt>
      <trkpt lat="45.08567" lon="6.06023">
        <ele>1594.1</ele>
        <time>2019-10-20T12:24:43Z</time>
      </trkpt>
      <trkpt lat="45.08573" lon="6.06016">
        <ele>1595.6</ele>
        <time>2019-10-20T12:24:48Z</time>
      </trkpt>
      <trkpt lat="45.08578" lon="6.06006">
        <ele>1597.6</ele>
        <time>2019-10-20T12:24:53Z</time>
      </trkpt>
      <trkpt lat="45.08586" lon="6.06">
        <ele>1599.6</ele>
        <time>2019-10-20T12:24:58Z</time>
      </trkpt>
      <trkpt lat="45.08595" lon="6.06004">
        <ele>1601.5</ele>
        <time>2019-10-20T12:25:03Z</time>
      </trkpt>
      <trkpt lat="45.08598" lon="6.0601">
        <ele>1604</ele>
        <time>2019-10-20T12:25:10Z</time>
      </trkpt>
      <trkpt lat="45.08606" lon="6.06026">
        <ele>1605.7</ele>
        <time>2019-10-20T12:25:29Z</time>
      </trkpt>
      <trkpt lat="45.08627" lon="6.06028">
        <ele>1609.8</ele>
        <time>2019-10-20T12:25:34Z</time>
      </trkpt>
      <trkpt lat="45.08629" lon="6.06025">
        <ele>1610.4</ele>
        <time>2019-10-20T12:25:39Z</time>
      </trkpt>
      <trkpt lat="45.08634" lon="6.06019">
        <ele>1612</ele>
        <time>2019-10-20T12:25:44Z</time>
      </trkpt>
      <trkpt lat="45.08638" lon="6.06019">
        <ele>1612.8</ele>
        <time>2019-10-20T12:25:49Z</time>
      </trkpt>
      <trkpt lat="45.08641" lon="6.06014">
        <ele>1613.8</ele>
        <time>2019-10-20T12:25:54Z</time>
      </trkpt>
      <trkpt lat="45.08651" lon="6.06015">
        <ele>1615.9</ele>
        <time>2019-10-20T12:25:59Z</time>
      </trkpt>
      <trkpt lat="45.08654" lon="6.0601">
        <ele>1616.7</ele>
        <time>2019-10-20T12:26:07Z</time>
      </trkpt>
      <trkpt lat="45.08668" lon="6.06007">
        <ele>1619.2</ele>
        <time>2019-10-20T12:26:12Z</time>
      </trkpt>
      <trkpt lat="45.08674" lon="6.06008">
        <ele>1620.2</ele>
        <time>2019-10-20T12:26:17Z</time>
      </trkpt>
      <trkpt lat="45.08683" lon="6.06012">
        <ele>1621.7</ele>
        <time>2019-10-20T12:26:22Z</time>
      </trkpt>
      <trkpt lat="45.08692" lon="6.06015">
        <ele>1623.2</ele>
        <time>2019-10-20T12:26:27Z</time>
      </trkpt>
      <trkpt lat="45.087" lon="6.06018">
        <ele>1624.5</ele>
        <time>2019-10-20T12:26:32Z</time>
      </trkpt>
      <trkpt lat="45.08708" lon="6.06019">
        <ele>1625.8</ele>
        <time>2019-10-20T12:26:37Z</time>
      </trkpt>
      <trkpt lat="45.08714" lon="6.06019">
        <ele>1626.8</ele>
        <time>2019-10-20T12:26:42Z</time>
      </trkpt>
      <trkpt lat="45.08721" lon="6.06021">
        <ele>1628.1</ele>
        <time>2019-10-20T12:26:47Z</time>
      </trkpt>
      <trkpt lat="45.08731" lon="6.06023">
        <ele>1629.7</ele>
        <time>2019-10-20T12:26:52Z</time>
      </trkpt>
      <trkpt lat="45.08739" lon="6.06025">
        <ele>1630.9</ele>
        <time>2019-10-20T12:26:57Z</time>
      </trkpt>
      <trkpt lat="45.08745" lon="6.06027">
        <ele>1632</ele>
        <time>2019-10-20T12:27:02Z</time>
      </trkpt>
      <trkpt lat="45.08758" lon="6.06033">
        <ele>1634.1</ele>
        <time>2019-10-20T12:27:07Z</time>
      </trkpt>
      <trkpt lat="45.08765" lon="6.06037">
        <ele>1635.3</ele>
        <time>2019-10-20T12:27:12Z</time>
      </trkpt>
      <trkpt lat="45.0877" lon="6.06044">
        <ele>1636.4</ele>
        <time>2019-10-20T12:27:21Z</time>
      </trkpt>
      <trkpt lat="45.08781" lon="6.0605">
        <ele>1638.2</ele>
        <time>2019-10-20T12:27:26Z</time>
      </trkpt>
      <trkpt lat="45.08785" lon="6.06042">
        <ele>1639.5</ele>
        <time>2019-10-20T12:27:52Z</time>
      </trkpt>
      <trkpt lat="45.0879" lon="6.06045">
        <ele>1640.8</ele>
        <time>2019-10-20T12:28:16Z</time>
      </trkpt>
      <trkpt lat="45.08796" lon="6.06059">
        <ele>1643.4</ele>
        <time>2019-10-20T12:28:27Z</time>
      </trkpt>
      <trkpt lat="45.088" lon="6.06065">
        <ele>1644.8</ele>
        <time>2019-10-20T12:28:32Z</time>
      </trkpt>
      <trkpt lat="45.088" lon="6.06069">
        <ele>1645.8</ele>
        <time>2019-10-20T12:28:38Z</time>
      </trkpt>
      <trkpt lat="45.08794" lon="6.06075">
        <ele>1648</ele>
        <time>2019-10-20T12:28:43Z</time>
      </trkpt>
      <trkpt lat="45.08792" lon="6.06075">
        <ele>1648.6</ele>
        <time>2019-10-20T12:28:49Z</time>
      </trkpt>
      <trkpt lat="45.0879" lon="6.06079">
        <ele>1649.7</ele>
        <time>2019-10-20T12:28:54Z</time>
      </trkpt>
      <trkpt lat="45.08794" lon="6.06079">
        <ele>1650.8</ele>
        <time>2019-10-20T12:29:04Z</time>
      </trkpt>
      <trkpt lat="45.08798" lon="6.06082">
        <ele>1652.3</ele>
        <time>2019-10-20T12:29:10Z</time>
      </trkpt>
      <trkpt lat="45.08803" lon="6.06084">
        <ele>1653.6</ele>
        <time>2019-10-20T12:29:15Z</time>
      </trkpt>
      <trkpt lat="45.08808" lon="6.06083">
        <ele>1654.9</ele>
        <time>2019-10-20T12:29:41Z</time>
      </trkpt>
      <trkpt lat="45.08813" lon="6.0608">
        <ele>1656.3</ele>
        <time>2019-10-20T12:30:47Z</time>
      </trkpt>
      <trkpt lat="45.08823" lon="6.0608">
        <ele>1658.9</ele>
        <time>2019-10-20T12:30:52Z</time>
      </trkpt>
      <trkpt lat="45.08831" lon="6.06086">
        <ele>1661.5</ele>
        <time>2019-10-20T12:30:57Z</time>
      </trkpt>
      <trkpt lat="45.0884" lon="6.06096">
        <ele>1664.9</ele>
        <time>2019-10-20T12:31:02Z</time>
      </trkpt>
      <trkpt lat="45.08855" lon="6.06105">
        <ele>1669.3</ele>
        <time>2019-10-20T12:31:07Z</time>
      </trkpt>
      <trkpt lat="45.08859" lon="6.06105">
        <ele>1670</ele>
        <time>2019-10-20T12:31:13Z</time>
      </trkpt>
      <trkpt lat="45.08867" lon="6.06104">
        <ele>1671.3</ele>
        <time>2019-10-20T12:31:18Z</time>
      </trkpt>
      <trkpt lat="45.08873" lon="6.06096">
        <ele>1672.5</ele>
        <time>2019-10-20T12:31:23Z</time>
      </trkpt>
      <trkpt lat="45.08881" lon="6.0609">
        <ele>1674</ele>
        <time>2019-10-20T12:31:28Z</time>
      </trkpt>
      <trkpt lat="45.08889" lon="6.06091">
        <ele>1675.5</ele>
        <time>2019-10-20T12:31:34Z</time>
      </trkpt>
      <trkpt lat="45.08897" lon="6.06092">
        <ele>1677.2</ele>
        <time>2019-10-20T12:31:39Z</time>
      </trkpt>
      <trkpt lat="45.08905" lon="6.06097">
        <ele>1679.3</ele>
        <time>2019-10-20T12:31:44Z</time>
      </trkpt>
      <trkpt lat="45.08913" lon="6.06096">
        <ele>1681</ele>
        <time>2019-10-20T12:31:49Z</time>
      </trkpt>
      <trkpt lat="45.08922" lon="6.0609">
        <ele>1683.3</ele>
        <time>2019-10-20T12:31:54Z</time>
      </trkpt>
      <trkpt lat="45.08933" lon="6.0609">
        <ele>1685.9</ele>
        <time>2019-10-20T12:32:07Z</time>
      </trkpt>
      <trkpt lat="45.08943" lon="6.06085">
        <ele>1688.7</ele>
        <time>2019-10-20T12:32:12Z</time>
      </trkpt>
      <trkpt lat="45.0895" lon="6.06081">
        <ele>1690.3</ele>
        <time>2019-10-20T12:32:17Z</time>
      </trkpt>
      <trkpt lat="45.08955" lon="6.06077">
        <ele>1691.4</ele>
        <time>2019-10-20T12:32:22Z</time>
      </trkpt>
      <trkpt lat="45.08965" lon="6.06071">
        <ele>1693.6</ele>
        <time>2019-10-20T12:32:27Z</time>
      </trkpt>
      <trkpt lat="45.08972" lon="6.06063">
        <ele>1695.3</ele>
        <time>2019-10-20T12:32:32Z</time>
      </trkpt>
      <trkpt lat="45.08979" lon="6.06061">
        <ele>1696.6</ele>
        <time>2019-10-20T12:32:37Z</time>
      </trkpt>
      <trkpt lat="45.08986" lon="6.06056">
        <ele>1698.1</ele>
        <time>2019-10-20T12:32:42Z</time>
      </trkpt>
      <trkpt lat="45.08992" lon="6.0606">
        <ele>1699.8</ele>
        <time>2019-10-20T12:32:47Z</time>
      </trkpt>
      <trkpt lat="45.08993" lon="6.06069">
        <ele>1701.4</ele>
        <time>2019-10-20T12:32:52Z</time>
      </trkpt>
      <trkpt lat="45.08992" lon="6.06086">
        <ele>1704.5</ele>
        <time>2019-10-20T12:33:06Z</time>
      </trkpt>
      <trkpt lat="45.0899" lon="6.06108">
        <ele>1708.9</ele>
        <time>2019-10-20T12:33:11Z</time>
      </trkpt>
      <trkpt lat="45.08993" lon="6.06131">
        <ele>1715.9</ele>
        <time>2019-10-20T12:33:16Z</time>
      </trkpt>
      <trkpt lat="45.08992" lon="6.06134">
        <ele>1715.9</ele>
        <time>2019-10-20T12:33:22Z</time>
      </trkpt>
      <trkpt lat="45.08985" lon="6.06149">
        <ele>1718.2</ele>
        <time>2019-10-20T12:33:27Z</time>
      </trkpt>
      <trkpt lat="45.08983" lon="6.06159">
        <ele>1720.3</ele>
        <time>2019-10-20T12:33:32Z</time>
      </trkpt>
      <trkpt lat="45.0898" lon="6.06169">
        <ele>1722.1</ele>
        <time>2019-10-20T12:33:37Z</time>
      </trkpt>
      <trkpt lat="45.08979" lon="6.06181">
        <ele>1725.5</ele>
        <time>2019-10-20T12:33:42Z</time>
      </trkpt>
      <trkpt lat="45.0898" lon="6.06191">
        <ele>1727.3</ele>
        <time>2019-10-20T12:33:47Z</time>
      </trkpt>
      <trkpt lat="45.08979" lon="6.06208">
        <ele>1730.4</ele>
        <time>2019-10-20T12:33:53Z</time>
      </trkpt>
      <trkpt lat="45.08976" lon="6.06214">
        <ele>1731.7</ele>
        <time>2019-10-20T12:33:58Z</time>
      </trkpt>
      <trkpt lat="45.08978" lon="6.06225">
        <ele>1733.6</ele>
        <time>2019-10-20T12:34:03Z</time>
      </trkpt>
      <trkpt lat="45.08974" lon="6.0623">
        <ele>1734.9</ele>
        <time>2019-10-20T12:34:08Z</time>
      </trkpt>
      <trkpt lat="45.08978" lon="6.06244">
        <ele>1737.3</ele>
        <time>2019-10-20T12:34:13Z</time>
      </trkpt>
      <trkpt lat="45.08977" lon="6.06251">
        <ele>1738.5</ele>
        <time>2019-10-20T12:34:18Z</time>
      </trkpt>
      <trkpt lat="45.08972" lon="6.0626">
        <ele>1740.4</ele>
        <time>2019-10-20T12:34:23Z</time>
      </trkpt>
      <trkpt lat="45.08976" lon="6.06275">
        <ele>1743</ele>
        <time>2019-10-20T12:34:28Z</time>
      </trkpt>
      <trkpt lat="45.08969" lon="6.06287">
        <ele>1745.8</ele>
        <time>2019-10-20T12:34:33Z</time>
      </trkpt>
      <trkpt lat="45.08971" lon="6.06298">
        <ele>1747.8</ele>
        <time>2019-10-20T12:34:38Z</time>
      </trkpt>
      <trkpt lat="45.08973" lon="6.06313">
        <ele>1750.3</ele>
        <time>2019-10-20T12:34:43Z</time>
      </trkpt>
      <trkpt lat="45.08974" lon="6.06321">
        <ele>1751.5</ele>
        <time>2019-10-20T12:34:48Z</time>
      </trkpt>
      <trkpt lat="45.08972" lon="6.06327">
        <ele>1752.3</ele>
        <time>2019-10-20T12:34:53Z</time>
      </trkpt>
      <trkpt lat="45.0897" lon="6.06341">
        <ele>1754.1</ele>
        <time>2019-10-20T12:34:58Z</time>
      </trkpt>
      <trkpt lat="45.08967" lon="6.06353">
        <ele>1756.2</ele>
        <time>2019-10-20T12:35:03Z</time>
      </trkpt>
      <trkpt lat="45.08958" lon="6.06359">
        <ele>1758.5</ele>
        <time>2019-10-20T12:35:09Z</time>
      </trkpt>
      <trkpt lat="45.0896" lon="6.0637">
        <ele>1760.5</ele>
        <time>2019-10-20T12:35:14Z</time>
      </trkpt>
      <trkpt lat="45.08957" lon="6.06377">
        <ele>1762.1</ele>
        <time>2019-10-20T12:35:19Z</time>
      </trkpt>
      <trkpt lat="45.08963" lon="6.06395">
        <ele>1766.1</ele>
        <time>2019-10-20T12:35:27Z</time>
      </trkpt>
      <trkpt lat="45.08968" lon="6.06404">
        <ele>1769.7</ele>
        <time>2019-10-20T12:35:32Z</time>
      </trkpt>
      <trkpt lat="45.08969" lon="6.06413">
        <ele>1771.2</ele>
        <time>2019-10-20T12:35:38Z</time>
      </trkpt>
      <trkpt lat="45.08976" lon="6.06424">
        <ele>1773.5</ele>
        <time>2019-10-20T12:35:43Z</time>
      </trkpt>
      <trkpt lat="45.08979" lon="6.06441">
        <ele>1776.4</ele>
        <time>2019-10-20T12:35:48Z</time>
      </trkpt>
      <trkpt lat="45.08982" lon="6.06453">
        <ele>1778.5</ele>
        <time>2019-10-20T12:36:08Z</time>
      </trkpt>
      <trkpt lat="45.0899" lon="6.06474">
        <ele>1780.2</ele>
        <time>2019-10-20T12:36:13Z</time>
      </trkpt>
      <trkpt lat="45.08999" lon="6.06489">
        <ele>1781.4</ele>
        <time>2019-10-20T12:36:18Z</time>
      </trkpt>
      <trkpt lat="45.09006" lon="6.06501">
        <ele>1782.6</ele>
        <time>2019-10-20T12:36:23Z</time>
      </trkpt>
      <trkpt lat="45.09013" lon="6.06512">
        <ele>1784</ele>
        <time>2019-10-20T12:36:28Z</time>
      </trkpt>
      <trkpt lat="45.09021" lon="6.06517">
        <ele>1784.4</ele>
        <time>2019-10-20T12:36:33Z</time>
      </trkpt>
      <trkpt lat="45.09031" lon="6.06519">
        <ele>1784.9</ele>
        <time>2019-10-20T12:36:38Z</time>
      </trkpt>
      <trkpt lat="45.09039" lon="6.06525">
        <ele>1785.4</ele>
        <time>2019-10-20T12:36:43Z</time>
      </trkpt>
      <trkpt lat="45.09042" lon="6.0654">
        <ele>1786</ele>
        <time>2019-10-20T12:36:48Z</time>
      </trkpt>
      <trkpt lat="45.09043" lon="6.06553">
        <ele>1786.4</ele>
        <time>2019-10-20T12:36:53Z</time>
      </trkpt>
      <trkpt lat="45.09047" lon="6.06571">
        <ele>1787.3</ele>
        <time>2019-10-20T12:36:58Z</time>
      </trkpt>
      <trkpt lat="45.09041" lon="6.06579">
        <ele>1787.7</ele>
        <time>2019-10-20T12:37:08Z</time>
      </trkpt>
      <trkpt lat="45.09035" lon="6.06581">
        <ele>1788</ele>
        <time>2019-10-20T12:37:13Z</time>
      </trkpt>
      <trkpt lat="45.09034" lon="6.06601">
        <ele>1788.9</ele>
        <time>2019-10-20T12:37:19Z</time>
      </trkpt>
      <trkpt lat="45.09029" lon="6.06616">
        <ele>1789.6</ele>
        <time>2019-10-20T12:37:24Z</time>
      </trkpt>
      <trkpt lat="45.09025" lon="6.06632">
        <ele>1790.8</ele>
        <time>2019-10-20T12:37:29Z</time>
      </trkpt>
      <trkpt lat="45.09025" lon="6.06644">
        <ele>1791.6</ele>
        <time>2019-10-20T12:37:34Z</time>
      </trkpt>
      <trkpt lat="45.09028" lon="6.06661">
        <ele>1792.8</ele>
        <time>2019-10-20T12:37:39Z</time>
      </trkpt>
      <trkpt lat="45.0902" lon="6.06684">
        <ele>1794.5</ele>
        <time>2019-10-20T12:37:44Z</time>
      </trkpt>
      <trkpt lat="45.09019" lon="6.06702">
        <ele>1795.6</ele>
        <time>2019-10-20T12:37:49Z</time>
      </trkpt>
      <trkpt lat="45.0901" lon="6.06716">
        <ele>1796.6</ele>
        <time>2019-10-20T12:37:55Z</time>
      </trkpt>
      <trkpt lat="45.09013" lon="6.06739">
        <ele>1797.8</ele>
        <time>2019-10-20T12:38:00Z</time>
      </trkpt>
      <trkpt lat="45.09006" lon="6.06755">
        <ele>1798.6</ele>
        <time>2019-10-20T12:38:05Z</time>
      </trkpt>
      <trkpt lat="45.09005" lon="6.06775">
        <ele>1799.7</ele>
        <time>2019-10-20T12:38:10Z</time>
      </trkpt>
      <trkpt lat="45.09001" lon="6.06798">
        <ele>1801.1</ele>
        <time>2019-10-20T12:38:15Z</time>
      </trkpt>
      <trkpt lat="45.09001" lon="6.06815">
        <ele>1802.1</ele>
        <time>2019-10-20T12:38:21Z</time>
      </trkpt>
      <trkpt lat="45.09004" lon="6.06829">
        <ele>1804.8</ele>
        <time>2019-10-20T12:38:26Z</time>
      </trkpt>
      <trkpt lat="45.09001" lon="6.06843">
        <ele>1806.1</ele>
        <time>2019-10-20T12:38:31Z</time>
      </trkpt>
      <trkpt lat="45.09004" lon="6.06857">
        <ele>1807</ele>
        <time>2019-10-20T12:38:36Z</time>
      </trkpt>
      <trkpt lat="45.09001" lon="6.06876">
        <ele>1808</ele>
        <time>2019-10-20T12:38:41Z</time>
      </trkpt>
      <trkpt lat="45.09004" lon="6.06892">
        <ele>1808.9</ele>
        <time>2019-10-20T12:38:46Z</time>
      </trkpt>
      <trkpt lat="45.09013" lon="6.06912">
        <ele>1810.3</ele>
        <time>2019-10-20T12:38:51Z</time>
      </trkpt>
      <trkpt lat="45.0902" lon="6.06921">
        <ele>1811.2</ele>
        <time>2019-10-20T12:38:56Z</time>
      </trkpt>
      <trkpt lat="45.09028" lon="6.06905">
        <ele>1810.4</ele>
        <time>2019-10-20T12:39:01Z</time>
      </trkpt>
      <trkpt lat="45.09027" lon="6.06882">
        <ele>1809.1</ele>
        <time>2019-10-20T12:39:06Z</time>
      </trkpt>
      <trkpt lat="45.09023" lon="6.06859">
        <ele>1808</ele>
        <time>2019-10-20T12:39:11Z</time>
      </trkpt>
      <trkpt lat="45.09018" lon="6.06842">
        <ele>1807.1</ele>
        <time>2019-10-20T12:39:16Z</time>
      </trkpt>
      <trkpt lat="45.09026" lon="6.0683">
        <ele>1808</ele>
        <time>2019-10-20T12:39:21Z</time>
      </trkpt>
      <trkpt lat="45.09036" lon="6.06824">
        <ele>1809.4</ele>
        <time>2019-10-20T12:39:26Z</time>
      </trkpt>
      <trkpt lat="45.09051" lon="6.06816">
        <ele>1811.5</ele>
        <time>2019-10-20T12:39:37Z</time>
      </trkpt>
      <trkpt lat="45.09069" lon="6.0681">
        <ele>1814</ele>
        <time>2019-10-20T12:39:42Z</time>
      </trkpt>
      <trkpt lat="45.09074" lon="6.06807">
        <ele>1814.6</ele>
        <time>2019-10-20T12:39:48Z</time>
      </trkpt>
      <trkpt lat="45.09075" lon="6.06807">
        <ele>1814.7</ele>
        <time>2019-10-20T12:39:53Z</time>
      </trkpt>
      <trkpt lat="45.09115" lon="6.06787">
        <ele>1817.5</ele>
        <time>2019-10-20T12:39:59Z</time>
      </trkpt>
      <trkpt lat="45.09131" lon="6.06788">
        <ele>1817.9</ele>
        <time>2019-10-20T12:40:04Z</time>
      </trkpt>
      <trkpt lat="45.09149" lon="6.06785">
        <ele>1818.1</ele>
        <time>2019-10-20T12:40:09Z</time>
      </trkpt>
      <trkpt lat="45.09169" lon="6.0679">
        <ele>1818.2</ele>
        <time>2019-10-20T12:40:16Z</time>
      </trkpt>
      <trkpt lat="45.09185" lon="6.06795">
        <ele>1818.9</ele>
        <time>2019-10-20T12:40:21Z</time>
      </trkpt>
      <trkpt lat="45.09199" lon="6.06801">
        <ele>1820.5</ele>
        <time>2019-10-20T12:40:26Z</time>
      </trkpt>
      <trkpt lat="45.09217" lon="6.06808">
        <ele>1822.5</ele>
        <time>2019-10-20T12:40:31Z</time>
      </trkpt>
      <trkpt lat="45.09234" lon="6.06819">
        <ele>1824.3</ele>
        <time>2019-10-20T12:40:36Z</time>
      </trkpt>
      <trkpt lat="45.09254" lon="6.06827">
        <ele>1826.5</ele>
        <time>2019-10-20T12:40:41Z</time>
      </trkpt>
      <trkpt lat="45.09272" lon="6.06834">
        <ele>1829.3</ele>
        <time>2019-10-20T12:40:46Z</time>
      </trkpt>
      <trkpt lat="45.09289" lon="6.06849">
        <ele>1832.1</ele>
        <time>2019-10-20T12:40:51Z</time>
      </trkpt>
      <trkpt lat="45.09303" lon="6.06859">
        <ele>1833.1</ele>
        <time>2019-10-20T12:40:56Z</time>
      </trkpt>
      <trkpt lat="45.0932" lon="6.06862">
        <ele>1834</ele>
        <time>2019-10-20T12:41:01Z</time>
      </trkpt>
      <trkpt lat="45.09334" lon="6.06881">
        <ele>1835</ele>
        <time>2019-10-20T12:41:06Z</time>
      </trkpt>
      <trkpt lat="45.09346" lon="6.06905">
        <ele>1835.8</ele>
        <time>2019-10-20T12:41:11Z</time>
      </trkpt>
    </trkseg>
  </trk>
</gpx>